DLH9911 KDEN-EDDF
Flight info
| Callsign | DLH9911 |
|---|---|
| Flight time | 9h 15m |
| Altitude | 37000 |
| Route | CHUWY1 CHUWY DCT KP87C DCT 4930N09000W 5430N08000W/N0495F390 5830N07000W/M085F390 DCT MAXAR DCT 6230N05000W 6230N04000W 6130N03000W/M085F410 60N020W DCT ETILO/N0489F410 DCT EVNAL DCT ERKIT N110 DOLAS DCT NAVPI DCT NOLRU DCT DIXAT DIXAT2C |
| Aircraft | A359/H-SDE2E3GHIJ3J4J5LM1ORWXY/LB1D1 |
Departure
| Time | 2026-05-05 00:42 |
|---|---|
| Airport | Denver International Airport (KDEN) |
Arrival
| Time | 2026-05-05 09:58 |
|---|---|
| Airport | Frankfurt Main Airport (EDDF) |
| Time | Latitude | Longitude | Altitude | Speed | Heading |
|---|---|---|---|---|---|
| 2026-05-05 00:02 | 39.85452 | -104.67231 | 5372 ft | 0 kts | 187° |
| 2026-05-05 00:25 | 39.85460 | -104.67230 | 5368 ft | 4 kts | 187° |
| 2026-05-05 00:26 | 39.85486 | -104.67225 | 5368 ft | 4 kts | 187° |
| 2026-05-05 00:26 | 39.85513 | -104.67220 | 5370 ft | 4 kts | 187° |
| 2026-05-05 00:26 | 39.85540 | -104.67216 | 5370 ft | 4 kts | 187° |
| 2026-05-05 00:26 | 39.85567 | -104.67211 | 5368 ft | 4 kts | 187° |
| 2026-05-05 00:27 | 39.85594 | -104.67207 | 5369 ft | 4 kts | 187° |
| 2026-05-05 00:27 | 39.85621 | -104.67202 | 5368 ft | 4 kts | 187° |
| 2026-05-05 00:27 | 39.85648 | -104.67197 | 5369 ft | 4 kts | 187° |
| 2026-05-05 00:27 | 39.85673 | -104.67193 | 5370 ft | 2 kts | 187° |
| 2026-05-05 00:28 | 39.85675 | -104.67193 | 5368 ft | 0 kts | 187° |
| 2026-05-05 00:32 | 39.85656 | -104.67195 | 5369 ft | 4 kts | 186° |
| 2026-05-05 00:32 | 39.85631 | -104.67204 | 5370 ft | 3 kts | 202° |
| 2026-05-05 00:33 | 39.85614 | -104.67220 | 5368 ft | 3 kts | 217° |
| 2026-05-05 00:33 | 39.85606 | -104.67231 | 5368 ft | 0 kts | 231° |
| 2026-05-05 00:33 | 39.85597 | -104.67254 | 5369 ft | 7 kts | 246° |
| 2026-05-05 00:34 | 39.85590 | -104.67313 | 5368 ft | 6 kts | 268° |
| 2026-05-05 00:34 | 39.85589 | -104.67368 | 5369 ft | 6 kts | 270° |
| 2026-05-05 00:34 | 39.85590 | -104.67419 | 5368 ft | 6 kts | 272° |
| 2026-05-05 00:34 | 39.85591 | -104.67469 | 5369 ft | 6 kts | 271° |
| 2026-05-05 00:35 | 39.85592 | -104.67543 | 5372 ft | 9 kts | 271° |
| 2026-05-05 00:35 | 39.85593 | -104.67630 | 5372 ft | 10 kts | 270° |
| 2026-05-05 00:35 | 39.85594 | -104.67724 | 5372 ft | 11 kts | 270° |
| 2026-05-05 00:35 | 39.85595 | -104.67823 | 5371 ft | 11 kts | 270° |
| 2026-05-05 00:36 | 39.85595 | -104.67927 | 5370 ft | 12 kts | 271° |
| 2026-05-05 00:36 | 39.85596 | -104.68037 | 5369 ft | 12 kts | 271° |
| 2026-05-05 00:36 | 39.85597 | -104.68150 | 5370 ft | 13 kts | 270° |
| 2026-05-05 00:36 | 39.85598 | -104.68268 | 5369 ft | 13 kts | 270° |
| 2026-05-05 00:37 | 39.85580 | -104.68375 | 5368 ft | 12 kts | 222° |
| 2026-05-05 00:37 | 39.85499 | -104.68396 | 5368 ft | 13 kts | 180° |
| 2026-05-05 00:37 | 39.85407 | -104.68399 | 5370 ft | 14 kts | 181° |
| 2026-05-05 00:37 | 39.85306 | -104.68400 | 5370 ft | 15 kts | 181° |
| 2026-05-05 00:38 | 39.85218 | -104.68445 | 5368 ft | 13 kts | 239° |
| 2026-05-05 00:38 | 39.85205 | -104.68563 | 5368 ft | 13 kts | 266° |
| 2026-05-05 00:38 | 39.85202 | -104.68685 | 5368 ft | 14 kts | 269° |
| 2026-05-05 00:38 | 39.85201 | -104.68812 | 5368 ft | 14 kts | 269° |
| 2026-05-05 00:39 | 39.85198 | -104.68944 | 5369 ft | 15 kts | 269° |
| 2026-05-05 00:39 | 39.85197 | -104.69080 | 5369 ft | 15 kts | 268° |
| 2026-05-05 00:39 | 39.85198 | -104.69221 | 5369 ft | 16 kts | 272° |
| 2026-05-05 00:39 | 39.85200 | -104.69366 | 5369 ft | 16 kts | 270° |
| 2026-05-05 00:40 | 39.85202 | -104.69503 | 5369 ft | 14 kts | 270° |
| 2026-05-05 00:40 | 39.85217 | -104.69625 | 5369 ft | 13 kts | 304° |
| 2026-05-05 00:40 | 39.85283 | -104.69657 | 5369 ft | 10 kts | 359° |
| 2026-05-05 00:40 | 39.85351 | -104.69655 | 5370 ft | 10 kts | 0° |
| 2026-05-05 00:41 | 39.85372 | -104.69655 | 5370 ft | 0 kts | 1° |
| 2026-05-05 00:41 | 39.85388 | -104.69655 | 5371 ft | 10 kts | 0° |
| 2026-05-05 00:41 | 39.85605 | -104.69653 | 5374 ft | 56 kts | 1° |
| 2026-05-05 00:42 | 39.86161 | -104.69646 | 5370 ft | 103 kts | 1° |
| 2026-05-05 00:42 | 39.87023 | -104.69635 | 5375 ft | 144 kts | 0° |
| 2026-05-05 00:42 | 39.88093 | -104.69613 | 5641 ft | 156 kts | 357° |
| 2026-05-05 00:42 | 39.89142 | -104.69634 | 6253 ft | 153 kts | 359° |
| 2026-05-05 00:43 | 39.90238 | -104.69641 | 6595 ft | 162 kts | 0° |
| 2026-05-05 00:43 | 39.91410 | -104.69463 | 6746 ft | 177 kts | 19° |
| 2026-05-05 00:43 | 39.92404 | -104.68457 | 6840 ft | 193 kts | 55° |
| 2026-05-05 00:43 | 39.93041 | -104.66840 | 7010 ft | 208 kts | 64° |
| 2026-05-05 00:44 | 39.93622 | -104.65039 | 7172 ft | 223 kts | 64° |
| 2026-05-05 00:44 | 39.94241 | -104.63111 | 7380 ft | 238 kts | 64° |
| 2026-05-05 00:44 | 39.94820 | -104.61012 | 7551 ft | 256 kts | 75° |
| 2026-05-05 00:44 | 39.95026 | -104.58629 | 7734 ft | 273 kts | 84° |
| 2026-05-05 00:45 | 39.95088 | -104.56128 | 8120 ft | 278 kts | 86° |
| 2026-05-05 00:45 | 39.95138 | -104.53594 | 8617 ft | 281 kts | 87° |
| 2026-05-05 00:45 | 39.95195 | -104.51031 | 9113 ft | 284 kts | 87° |
| 2026-05-05 00:45 | 39.95259 | -104.48443 | 9608 ft | 287 kts | 87° |
| 2026-05-05 00:46 | 39.95328 | -104.45846 | 9928 ft | 288 kts | 87° |
| 2026-05-05 00:46 | 39.95398 | -104.43226 | 9961 ft | 290 kts | 87° |
| 2026-05-05 00:46 | 39.95480 | -104.40595 | 9951 ft | 291 kts | 85° |
| 2026-05-05 00:46 | 39.95637 | -104.37970 | 9997 ft | 292 kts | 84° |
| 2026-05-05 00:47 | 39.95825 | -104.35285 | 10091 ft | 304 kts | 84° |
| 2026-05-05 00:47 | 39.96024 | -104.32479 | 10264 ft | 318 kts | 84° |
| 2026-05-05 00:47 | 39.96232 | -104.29547 | 10432 ft | 331 kts | 84° |
| 2026-05-05 00:47 | 39.96447 | -104.26503 | 10592 ft | 344 kts | 84° |
| 2026-05-05 00:48 | 39.96668 | -104.23342 | 10750 ft | 356 kts | 85° |
| 2026-05-05 00:48 | 39.96894 | -104.20075 | 10897 ft | 367 kts | 84° |
| 2026-05-05 00:48 | 39.97127 | -104.16713 | 11027 ft | 378 kts | 84° |
| 2026-05-05 00:48 | 39.97441 | -104.13270 | 11261 ft | 385 kts | 82° |
| 2026-05-05 00:49 | 39.97820 | -104.09796 | 11636 ft | 389 kts | 82° |
| 2026-05-05 00:49 | 39.98202 | -104.06331 | 11910 ft | 394 kts | 82° |
| 2026-05-05 00:49 | 39.98593 | -104.02781 | 12359 ft | 395 kts | 82° |
| 2026-05-05 00:49 | 39.98983 | -103.99219 | 12693 ft | 400 kts | 82° |
| 2026-05-05 00:50 | 39.99379 | -103.95571 | 13113 ft | 401 kts | 82° |
| 2026-05-05 00:50 | 39.99797 | -103.91962 | 13493 ft | 404 kts | 81° |
| 2026-05-05 00:50 | 40.00339 | -103.88354 | 13827 ft | 407 kts | 79° |
| 2026-05-05 00:50 | 40.00975 | -103.84375 | 14184 ft | 411 kts | 78° |
| 2026-05-05 00:51 | 40.01362 | -103.81953 | 14396 ft | 413 kts | 78° |
| 2026-05-05 00:51 | 40.01947 | -103.78285 | 14775 ft | 414 kts | 78° |
| 2026-05-05 00:51 | 40.02546 | -103.74602 | 15122 ft | 417 kts | 78° |
| 2026-05-05 00:51 | 40.03158 | -103.70894 | 15472 ft | 419 kts | 78° |
| 2026-05-05 00:52 | 40.03771 | -103.67171 | 15815 ft | 421 kts | 78° |
| 2026-05-05 00:52 | 40.04388 | -103.63416 | 16124 ft | 425 kts | 78° |
| 2026-05-05 00:52 | 40.05007 | -103.59636 | 16461 ft | 427 kts | 78° |
| 2026-05-05 00:52 | 40.05629 | -103.55829 | 16785 ft | 430 kts | 78° |
| 2026-05-05 00:53 | 40.06252 | -103.52005 | 17123 ft | 433 kts | 78° |
| 2026-05-05 00:53 | 40.06879 | -103.48149 | 17458 ft | 435 kts | 78° |
| 2026-05-05 00:53 | 40.07505 | -103.44286 | 17946 ft | 434 kts | 78° |
| 2026-05-05 00:53 | 40.08129 | -103.40434 | 18339 ft | 436 kts | 78° |
| 2026-05-05 00:54 | 40.08758 | -103.36546 | 18598 ft | 439 kts | 78° |
| 2026-05-05 00:54 | 40.09387 | -103.32641 | 18912 ft | 441 kts | 78° |
| 2026-05-05 00:54 | 40.10019 | -103.28711 | 19206 ft | 443 kts | 78° |
| 2026-05-05 00:54 | 40.10651 | -103.24771 | 19502 ft | 445 kts | 78° |
| 2026-05-05 00:55 | 40.11285 | -103.20809 | 19772 ft | 447 kts | 78° |
| 2026-05-05 00:55 | 40.11923 | -103.16818 | 20042 ft | 449 kts | 78° |
| 2026-05-05 00:55 | 40.12560 | -103.12817 | 20310 ft | 451 kts | 78° |
| 2026-05-05 00:55 | 40.13202 | -103.08780 | 20438 ft | 455 kts | 78° |
| 2026-05-05 00:56 | 40.13843 | -103.04733 | 20717 ft | 456 kts | 78° |
| 2026-05-05 00:56 | 40.14488 | -103.00659 | 20969 ft | 459 kts | 78° |
| 2026-05-05 00:56 | 40.15134 | -102.96566 | 21221 ft | 461 kts | 78° |
| 2026-05-05 00:56 | 40.15781 | -102.92456 | 21459 ft | 463 kts | 78° |
| 2026-05-05 00:57 | 40.16430 | -102.88321 | 21712 ft | 466 kts | 78° |
| 2026-05-05 00:57 | 40.17072 | -102.84222 | 21967 ft | 468 kts | 78° |
| 2026-05-05 00:57 | 40.17733 | -102.79992 | 22224 ft | 470 kts | 78° |
| 2026-05-05 00:57 | 40.18379 | -102.75846 | 22461 ft | 473 kts | 78° |
| 2026-05-05 00:58 | 40.19033 | -102.71641 | 22659 ft | 476 kts | 78° |
| 2026-05-05 00:58 | 40.19696 | -102.67370 | 22914 ft | 478 kts | 78° |
| 2026-05-05 00:58 | 40.20356 | -102.63102 | 23169 ft | 479 kts | 78° |
| 2026-05-05 00:58 | 40.21016 | -102.58826 | 23394 ft | 482 kts | 78° |
| 2026-05-05 00:59 | 40.21678 | -102.54520 | 23600 ft | 484 kts | 78° |
| 2026-05-05 00:59 | 40.22343 | -102.50192 | 23794 ft | 486 kts | 78° |
| 2026-05-05 00:59 | 40.23007 | -102.45855 | 24003 ft | 488 kts | 78° |
| 2026-05-05 00:59 | 40.23673 | -102.41488 | 24208 ft | 489 kts | 78° |
| 2026-05-05 01:00 | 40.24341 | -102.37106 | 24413 ft | 493 kts | 78° |
| 2026-05-05 01:00 | 40.25008 | -102.32707 | 24585 ft | 495 kts | 78° |
| 2026-05-05 01:00 | 40.25681 | -102.28269 | 24743 ft | 498 kts | 78° |
| 2026-05-05 01:00 | 40.26352 | -102.23823 | 24965 ft | 499 kts | 78° |
| 2026-05-05 01:01 | 40.27026 | -102.19352 | 25161 ft | 501 kts | 78° |
| 2026-05-05 01:01 | 40.27699 | -102.14873 | 25388 ft | 502 kts | 78° |
| 2026-05-05 01:01 | 40.28372 | -102.10376 | 25610 ft | 504 kts | 78° |
| 2026-05-05 01:01 | 40.29047 | -102.05862 | 25808 ft | 506 kts | 78° |
| 2026-05-05 01:02 | 40.29722 | -102.01327 | 26048 ft | 508 kts | 78° |
| 2026-05-05 01:02 | 40.30397 | -101.96786 | 26282 ft | 509 kts | 78° |
| 2026-05-05 01:02 | 40.31065 | -101.92275 | 26495 ft | 511 kts | 78° |
| 2026-05-05 01:02 | 40.31741 | -101.87697 | 26719 ft | 513 kts | 78° |
| 2026-05-05 01:03 | 40.32419 | -101.83095 | 26934 ft | 515 kts | 78° |
| 2026-05-05 01:03 | 40.33096 | -101.78477 | 27181 ft | 517 kts | 78° |
| 2026-05-05 01:03 | 40.33774 | -101.73849 | 27404 ft | 519 kts | 78° |
| 2026-05-05 01:03 | 40.34453 | -101.69198 | 27626 ft | 521 kts | 78° |
| 2026-05-05 01:04 | 40.35133 | -101.64527 | 27924 ft | 521 kts | 78° |
| 2026-05-05 01:04 | 40.36498 | -101.55177 | 28415 ft | 524 kts | 76° |
| 2026-05-05 01:04 | 40.37462 | -101.50580 | 28621 ft | 524 kts | 68° |
| 2026-05-05 01:05 | 40.38965 | -101.46247 | 28814 ft | 521 kts | 57° |
| 2026-05-05 01:05 | 40.41000 | -101.42338 | 29031 ft | 517 kts | 46° |
| 2026-05-05 01:05 | 40.43491 | -101.38970 | 29239 ft | 512 kts | 36° |
| 2026-05-05 01:05 | 40.46344 | -101.36208 | 29473 ft | 508 kts | 28° |
| 2026-05-05 01:06 | 40.49337 | -101.33745 | 29710 ft | 507 kts | 26° |
| 2026-05-05 01:06 | 40.52370 | -101.31382 | 29933 ft | 508 kts | 25° |
| 2026-05-05 01:06 | 40.55438 | -101.29050 | 30134 ft | 510 kts | 24° |
| 2026-05-05 01:06 | 40.58517 | -101.26718 | 30335 ft | 511 kts | 24° |
| 2026-05-05 01:07 | 40.61600 | -101.24371 | 30505 ft | 513 kts | 24° |
| 2026-05-05 01:07 | 40.64686 | -101.22001 | 30792 ft | 513 kts | 24° |
| 2026-05-05 01:07 | 40.67760 | -101.19622 | 31114 ft | 512 kts | 24° |
| 2026-05-05 01:07 | 40.70812 | -101.17249 | 31410 ft | 511 kts | 23° |
| 2026-05-05 01:08 | 40.73874 | -101.14861 | 31704 ft | 511 kts | 23° |
| 2026-05-05 01:08 | 40.76927 | -101.12477 | 31986 ft | 510 kts | 22° |
| 2026-05-05 01:08 | 40.79982 | -101.10088 | 32264 ft | 510 kts | 22° |
| 2026-05-05 01:08 | 40.83041 | -101.07695 | 32507 ft | 511 kts | 22° |
| 2026-05-05 01:09 | 40.86115 | -101.05293 | 32631 ft | 514 kts | 22° |
| 2026-05-05 01:09 | 40.89189 | -101.02885 | 32927 ft | 513 kts | 22° |
| 2026-05-05 01:09 | 40.92252 | -101.00480 | 33262 ft | 511 kts | 22° |
| 2026-05-05 01:09 | 40.95310 | -100.98075 | 33567 ft | 510 kts | 21° |
| 2026-05-05 01:10 | 40.98359 | -100.95676 | 33855 ft | 509 kts | 21° |
| 2026-05-05 01:10 | 41.01403 | -100.93279 | 34091 ft | 509 kts | 21° |
| 2026-05-05 01:10 | 41.04450 | -100.90880 | 34293 ft | 509 kts | 21° |
| 2026-05-05 01:10 | 41.07466 | -100.88506 | 34428 ft | 511 kts | 21° |
| 2026-05-05 01:11 | 41.10527 | -100.86093 | 34603 ft | 512 kts | 21° |
| 2026-05-05 01:11 | 41.13593 | -100.83669 | 34810 ft | 512 kts | 21° |
| 2026-05-05 01:11 | 41.16648 | -100.81251 | 35009 ft | 512 kts | 21° |
| 2026-05-05 01:11 | 41.19709 | -100.78825 | 35200 ft | 512 kts | 21° |
| 2026-05-05 01:12 | 41.22773 | -100.76394 | 35380 ft | 512 kts | 20° |
| 2026-05-05 01:12 | 41.25833 | -100.73963 | 35573 ft | 513 kts | 20° |
| 2026-05-05 01:12 | 41.28891 | -100.71532 | 35783 ft | 513 kts | 20° |
| 2026-05-05 01:12 | 41.31959 | -100.69094 | 35912 ft | 515 kts | 20° |
| 2026-05-05 01:13 | 41.35050 | -100.66634 | 36069 ft | 515 kts | 20° |
| 2026-05-05 01:13 | 41.38123 | -100.64183 | 36262 ft | 515 kts | 20° |
| 2026-05-05 01:13 | 41.41161 | -100.61756 | 36447 ft | 515 kts | 20° |
| 2026-05-05 01:13 | 41.44237 | -100.59296 | 36624 ft | 515 kts | 20° |
| 2026-05-05 01:14 | 41.47317 | -100.56832 | 36808 ft | 516 kts | 19° |
| 2026-05-05 01:14 | 41.50402 | -100.54362 | 36895 ft | 518 kts | 19° |
| 2026-05-05 01:14 | 41.56616 | -100.49384 | 36865 ft | 520 kts | 20° |
| 2026-05-05 01:15 | 41.62817 | -100.44393 | 36867 ft | 521 kts | 20° |
| 2026-05-05 01:15 | 41.69021 | -100.39388 | 36879 ft | 521 kts | 20° |
| 2026-05-05 01:16 | 41.75187 | -100.34407 | 36895 ft | 521 kts | 20° |
| 2026-05-05 01:16 | 41.81379 | -100.29392 | 36868 ft | 520 kts | 20° |
| 2026-05-05 01:17 | 41.87585 | -100.24355 | 36868 ft | 520 kts | 20° |
| 2026-05-05 01:17 | 41.93772 | -100.19322 | 36885 ft | 520 kts | 21° |
| 2026-05-05 01:18 | 41.99947 | -100.14286 | 36874 ft | 518 kts | 21° |
| 2026-05-05 01:18 | 42.06106 | -100.09251 | 36872 ft | 517 kts | 21° |
| 2026-05-05 01:19 | 42.12259 | -100.04212 | 36869 ft | 517 kts | 21° |
| 2026-05-05 01:19 | 42.18413 | -99.99163 | 36906 ft | 518 kts | 22° |
| 2026-05-05 01:20 | 42.24571 | -99.94097 | 36873 ft | 518 kts | 22° |
| 2026-05-05 01:20 | 42.30680 | -99.89058 | 36881 ft | 518 kts | 22° |
| 2026-05-05 01:21 | 42.36844 | -99.83961 | 36890 ft | 518 kts | 22° |
| 2026-05-05 01:21 | 42.42991 | -99.78866 | 36888 ft | 517 kts | 22° |
| 2026-05-05 01:22 | 42.49122 | -99.73773 | 36887 ft | 517 kts | 22° |
| 2026-05-05 01:22 | 42.55258 | -99.68666 | 36886 ft | 517 kts | 22° |
| 2026-05-05 01:23 | 42.61381 | -99.63558 | 36898 ft | 517 kts | 22° |
| 2026-05-05 01:23 | 42.67511 | -99.58432 | 36882 ft | 518 kts | 22° |
| 2026-05-05 01:24 | 42.73609 | -99.53321 | 36889 ft | 518 kts | 22° |
| 2026-05-05 01:24 | 42.79745 | -99.48164 | 36882 ft | 518 kts | 22° |
| 2026-05-05 01:25 | 42.85878 | -99.42998 | 36900 ft | 518 kts | 22° |
| 2026-05-05 01:25 | 42.92013 | -99.37817 | 36891 ft | 518 kts | 22° |
| 2026-05-05 01:26 | 42.98137 | -99.32634 | 36889 ft | 518 kts | 22° |
| 2026-05-05 01:26 | 43.04260 | -99.27440 | 36891 ft | 518 kts | 22° |
| 2026-05-05 01:27 | 43.10347 | -99.22264 | 36892 ft | 518 kts | 22° |
| 2026-05-05 01:27 | 43.16469 | -99.17046 | 36892 ft | 518 kts | 22° |
| 2026-05-05 01:28 | 43.22588 | -99.11818 | 36892 ft | 518 kts | 22° |
| 2026-05-05 01:28 | 43.28702 | -99.06584 | 36918 ft | 519 kts | 22° |
| 2026-05-05 01:29 | 43.34829 | -99.01324 | 36891 ft | 519 kts | 22° |
| 2026-05-05 01:29 | 43.40956 | -98.96050 | 36892 ft | 519 kts | 22° |
| 2026-05-05 01:30 | 43.47035 | -98.90806 | 36895 ft | 519 kts | 22° |
| 2026-05-05 01:30 | 43.53156 | -98.85513 | 36895 ft | 520 kts | 22° |
| 2026-05-05 01:31 | 43.59286 | -98.80201 | 36892 ft | 520 kts | 23° |
| 2026-05-05 01:31 | 43.65416 | -98.74874 | 36896 ft | 521 kts | 23° |
| 2026-05-05 01:32 | 43.71544 | -98.69535 | 36911 ft | 521 kts | 23° |
| 2026-05-05 01:32 | 43.77668 | -98.64187 | 36889 ft | 520 kts | 23° |
| 2026-05-05 01:33 | 43.83794 | -98.58825 | 36885 ft | 521 kts | 23° |
| 2026-05-05 01:33 | 43.89918 | -98.53451 | 36890 ft | 521 kts | 23° |
| 2026-05-05 01:34 | 43.96037 | -98.48069 | 36881 ft | 521 kts | 23° |
| 2026-05-05 01:34 | 44.02120 | -98.42705 | 36878 ft | 521 kts | 23° |
| 2026-05-05 01:35 | 44.08247 | -98.37287 | 36876 ft | 521 kts | 23° |
| 2026-05-05 01:35 | 44.14366 | -98.31864 | 36882 ft | 521 kts | 24° |
| 2026-05-05 01:36 | 44.20490 | -98.26423 | 36870 ft | 522 kts | 24° |
| 2026-05-05 01:36 | 44.26610 | -98.20971 | 36870 ft | 522 kts | 24° |
| 2026-05-05 01:37 | 44.32728 | -98.15509 | 36892 ft | 522 kts | 24° |
| 2026-05-05 01:37 | 44.38847 | -98.10033 | 36850 ft | 522 kts | 24° |
| 2026-05-05 01:38 | 44.44931 | -98.04572 | 36853 ft | 523 kts | 24° |
| 2026-05-05 01:38 | 44.50866 | -97.98598 | 36856 ft | 534 kts | 34° |
| 2026-05-05 01:39 | 44.56291 | -97.91415 | 36860 ft | 538 kts | 37° |
| 2026-05-05 01:39 | 44.61602 | -97.84010 | 36854 ft | 538 kts | 37° |
| 2026-05-05 01:40 | 44.66005 | -97.77817 | 36858 ft | 539 kts | 37° |
| 2026-05-05 01:40 | 44.71309 | -97.70373 | 36855 ft | 538 kts | 37° |
| 2026-05-05 01:41 | 44.76622 | -97.62926 | 36854 ft | 538 kts | 38° |
| 2026-05-05 01:41 | 44.81932 | -97.55470 | 36835 ft | 539 kts | 38° |
| 2026-05-05 01:42 | 44.87215 | -97.48032 | 36834 ft | 540 kts | 38° |
| 2026-05-05 01:42 | 44.92526 | -97.40530 | 36821 ft | 540 kts | 38° |
| 2026-05-05 01:43 | 44.97835 | -97.33010 | 36841 ft | 540 kts | 38° |
| 2026-05-05 01:43 | 45.03136 | -97.25482 | 36842 ft | 540 kts | 38° |
| 2026-05-05 01:44 | 45.08443 | -97.17922 | 36826 ft | 541 kts | 38° |
| 2026-05-05 01:44 | 45.13750 | -97.10343 | 36833 ft | 541 kts | 38° |
| 2026-05-05 01:45 | 45.19002 | -97.02820 | 36837 ft | 540 kts | 38° |
| 2026-05-05 01:45 | 45.24280 | -96.95238 | 36826 ft | 539 kts | 38° |
| 2026-05-05 01:46 | 45.29543 | -96.87658 | 36827 ft | 539 kts | 38° |
| 2026-05-05 01:46 | 45.34799 | -96.80067 | 36821 ft | 538 kts | 39° |
| 2026-05-05 01:47 | 45.40053 | -96.72457 | 36822 ft | 538 kts | 39° |
| 2026-05-05 01:47 | 45.45282 | -96.64861 | 36811 ft | 537 kts | 39° |
| 2026-05-05 01:48 | 45.50509 | -96.57247 | 36820 ft | 537 kts | 39° |
| 2026-05-05 01:48 | 45.55735 | -96.49615 | 36817 ft | 537 kts | 39° |
| 2026-05-05 01:49 | 45.60951 | -96.41975 | 36830 ft | 537 kts | 39° |
| 2026-05-05 01:49 | 45.66116 | -96.34386 | 36809 ft | 535 kts | 39° |
| 2026-05-05 01:50 | 45.71295 | -96.26755 | 36842 ft | 535 kts | 39° |
| 2026-05-05 01:50 | 45.76482 | -96.19094 | 36824 ft | 535 kts | 39° |
| 2026-05-05 01:51 | 45.81651 | -96.11437 | 36843 ft | 535 kts | 40° |
| 2026-05-05 01:51 | 45.86816 | -96.03761 | 36811 ft | 534 kts | 40° |
| 2026-05-05 01:52 | 45.91969 | -95.96083 | 36813 ft | 533 kts | 40° |
| 2026-05-05 01:52 | 45.97078 | -95.88449 | 36816 ft | 534 kts | 40° |
| 2026-05-05 01:53 | 46.02227 | -95.80736 | 36851 ft | 535 kts | 40° |
| 2026-05-05 01:53 | 46.07367 | -95.73011 | 36816 ft | 533 kts | 41° |
| 2026-05-05 01:54 | 46.12494 | -95.65282 | 36831 ft | 533 kts | 41° |
| 2026-05-05 01:54 | 46.17619 | -95.57536 | 36818 ft | 533 kts | 41° |
| 2026-05-05 01:55 | 46.22738 | -95.49776 | 36813 ft | 533 kts | 41° |
| 2026-05-05 01:55 | 46.27841 | -95.42018 | 36810 ft | 532 kts | 41° |
| 2026-05-05 01:56 | 46.32932 | -95.34255 | 36810 ft | 531 kts | 41° |
| 2026-05-05 01:56 | 46.37974 | -95.26546 | 36791 ft | 531 kts | 41° |
| 2026-05-05 01:57 | 46.43050 | -95.18762 | 36787 ft | 531 kts | 41° |
| 2026-05-05 01:57 | 46.48128 | -95.10954 | 36787 ft | 531 kts | 42° |
| 2026-05-05 01:58 | 46.53190 | -95.03145 | 36785 ft | 530 kts | 42° |
| 2026-05-05 01:58 | 46.58238 | -94.95335 | 36781 ft | 530 kts | 42° |
| 2026-05-05 01:59 | 46.63241 | -94.87574 | 36779 ft | 530 kts | 42° |
| 2026-05-05 01:59 | 46.68283 | -94.79729 | 36769 ft | 530 kts | 42° |
| 2026-05-05 02:00 | 46.73317 | -94.71874 | 36774 ft | 531 kts | 42° |
| 2026-05-05 02:00 | 46.78352 | -94.63995 | 36754 ft | 531 kts | 42° |
| 2026-05-05 02:01 | 46.83380 | -94.56101 | 36757 ft | 531 kts | 42° |
| 2026-05-05 02:01 | 46.88408 | -94.48186 | 36789 ft | 531 kts | 43° |
| 2026-05-05 02:02 | 46.93423 | -94.40265 | 36742 ft | 529 kts | 43° |
| 2026-05-05 02:02 | 46.98419 | -94.32352 | 36738 ft | 529 kts | 43° |
| 2026-05-05 02:03 | 47.03378 | -94.24475 | 36735 ft | 529 kts | 43° |
| 2026-05-05 02:03 | 47.08363 | -94.16533 | 36739 ft | 529 kts | 43° |
| 2026-05-05 02:04 | 47.13342 | -94.08578 | 36771 ft | 529 kts | 43° |
| 2026-05-05 02:04 | 47.18315 | -94.00607 | 36765 ft | 529 kts | 43° |
| 2026-05-05 02:05 | 47.23279 | -93.92628 | 36763 ft | 528 kts | 43° |
| 2026-05-05 02:05 | 47.28220 | -93.84661 | 36762 ft | 528 kts | 43° |
| 2026-05-05 02:06 | 47.33176 | -93.76647 | 36780 ft | 529 kts | 44° |
| 2026-05-05 02:06 | 47.38119 | -93.68632 | 36748 ft | 528 kts | 44° |
| 2026-05-05 02:07 | 47.43054 | -93.60602 | 36748 ft | 528 kts | 44° |
| 2026-05-05 02:07 | 47.47979 | -93.52566 | 36752 ft | 528 kts | 44° |
| 2026-05-05 02:08 | 47.52902 | -93.44507 | 36736 ft | 528 kts | 44° |
| 2026-05-05 02:08 | 47.57816 | -93.36443 | 36732 ft | 527 kts | 44° |
| 2026-05-05 02:09 | 47.62721 | -93.28365 | 36730 ft | 527 kts | 44° |
| 2026-05-05 02:09 | 47.67592 | -93.20321 | 36726 ft | 528 kts | 44° |
| 2026-05-05 02:10 | 47.72489 | -93.12208 | 36724 ft | 528 kts | 44° |
| 2026-05-05 02:10 | 47.77381 | -93.04078 | 36743 ft | 528 kts | 45° |
| 2026-05-05 02:11 | 47.82264 | -92.95939 | 36697 ft | 526 kts | 45° |
| 2026-05-05 02:11 | 47.87131 | -92.87802 | 36688 ft | 527 kts | 45° |
| 2026-05-05 02:12 | 47.94436 | -92.75545 | 36684 ft | 527 kts | 45° |
| 2026-05-05 02:13 | 47.99294 | -92.67359 | 36700 ft | 527 kts | 45° |
| 2026-05-05 02:13 | 48.04144 | -92.59162 | 36677 ft | 526 kts | 45° |
| 2026-05-05 02:14 | 48.08980 | -92.50965 | 36688 ft | 526 kts | 45° |
| 2026-05-05 02:14 | 48.13812 | -92.42749 | 36682 ft | 526 kts | 45° |
| 2026-05-05 02:15 | 48.18636 | -92.34520 | 36677 ft | 526 kts | 45° |
| 2026-05-05 02:15 | 48.23463 | -92.26262 | 36681 ft | 525 kts | 46° |
| 2026-05-05 02:16 | 48.28273 | -92.18005 | 36675 ft | 525 kts | 46° |
| 2026-05-05 02:16 | 48.33081 | -92.09727 | 36672 ft | 525 kts | 46° |
| 2026-05-05 02:17 | 48.37851 | -92.01491 | 36663 ft | 526 kts | 46° |
| 2026-05-05 02:17 | 48.42648 | -91.93179 | 36687 ft | 526 kts | 46° |
| 2026-05-05 02:18 | 48.47431 | -91.84867 | 36659 ft | 525 kts | 46° |
| 2026-05-05 02:18 | 48.52206 | -91.76542 | 36653 ft | 525 kts | 46° |
| 2026-05-05 02:19 | 48.56981 | -91.68193 | 36653 ft | 525 kts | 46° |
| 2026-05-05 02:19 | 48.61751 | -91.59825 | 36646 ft | 526 kts | 46° |
| 2026-05-05 02:20 | 48.66520 | -91.51431 | 36651 ft | 525 kts | 47° |
| 2026-05-05 02:20 | 48.71266 | -91.43051 | 36637 ft | 524 kts | 47° |
| 2026-05-05 02:21 | 48.75983 | -91.34698 | 36635 ft | 524 kts | 47° |
| 2026-05-05 02:21 | 48.80721 | -91.26279 | 36638 ft | 524 kts | 47° |
| 2026-05-05 02:22 | 48.85460 | -91.17833 | 36622 ft | 525 kts | 47° |
| 2026-05-05 02:22 | 48.90164 | -91.09423 | 36625 ft | 525 kts | 47° |
| 2026-05-05 02:23 | 48.94888 | -91.00948 | 36612 ft | 525 kts | 47° |
| 2026-05-05 02:23 | 48.99608 | -90.92456 | 36619 ft | 525 kts | 47° |
| 2026-05-05 02:24 | 49.04323 | -90.83944 | 36600 ft | 526 kts | 47° |
| 2026-05-05 02:24 | 49.09012 | -90.75451 | 36620 ft | 526 kts | 47° |
| 2026-05-05 02:25 | 49.13720 | -90.66896 | 36592 ft | 525 kts | 47° |
| 2026-05-05 02:25 | 49.18412 | -90.58343 | 36594 ft | 525 kts | 48° |
| 2026-05-05 02:26 | 49.23098 | -90.49773 | 36584 ft | 525 kts | 48° |
| 2026-05-05 02:26 | 49.27779 | -90.41185 | 36582 ft | 525 kts | 48° |
| 2026-05-05 02:27 | 49.32457 | -90.32573 | 36583 ft | 525 kts | 48° |
| 2026-05-05 02:27 | 49.37124 | -90.23954 | 36580 ft | 525 kts | 48° |
| 2026-05-05 02:28 | 49.41784 | -90.15319 | 36574 ft | 524 kts | 48° |
| 2026-05-05 02:28 | 49.46405 | -90.06729 | 36572 ft | 525 kts | 49° |
| 2026-05-05 02:29 | 49.51086 | -89.98103 | 36556 ft | 524 kts | 47° |
| 2026-05-05 02:29 | 49.56007 | -89.89832 | 36562 ft | 524 kts | 45° |
| 2026-05-05 02:30 | 49.60166 | -89.83036 | 36561 ft | 524 kts | 45° |
| 2026-05-05 02:30 | 49.65145 | -89.74832 | 36562 ft | 524 kts | 45° |
| 2026-05-05 02:31 | 49.70094 | -89.66578 | 36562 ft | 524 kts | 45° |
| 2026-05-05 02:31 | 49.75029 | -89.58293 | 36562 ft | 524 kts | 46° |
| 2026-05-05 02:32 | 49.79957 | -89.49988 | 36544 ft | 523 kts | 46° |
| 2026-05-05 02:32 | 49.84871 | -89.41683 | 36537 ft | 523 kts | 46° |
| 2026-05-05 02:33 | 49.89745 | -89.33422 | 36533 ft | 523 kts | 46° |
| 2026-05-05 02:33 | 49.94645 | -89.25092 | 36522 ft | 523 kts | 46° |
| 2026-05-05 02:34 | 49.99553 | -89.16719 | 36524 ft | 523 kts | 46° |
| 2026-05-05 02:34 | 50.04445 | -89.08345 | 36510 ft | 522 kts | 46° |
| 2026-05-05 02:35 | 50.09327 | -88.99962 | 36493 ft | 523 kts | 46° |
| 2026-05-05 02:35 | 50.14185 | -88.91592 | 36486 ft | 523 kts | 46° |
| 2026-05-05 02:36 | 50.19060 | -88.83166 | 36493 ft | 523 kts | 46° |
| 2026-05-05 02:36 | 50.23926 | -88.74729 | 36479 ft | 522 kts | 47° |
| 2026-05-05 02:37 | 50.28780 | -88.66283 | 36479 ft | 522 kts | 47° |
| 2026-05-05 02:37 | 50.33629 | -88.57820 | 36478 ft | 522 kts | 47° |
| 2026-05-05 02:38 | 50.38441 | -88.49393 | 36472 ft | 522 kts | 47° |
| 2026-05-05 02:38 | 50.43280 | -88.40888 | 36465 ft | 522 kts | 47° |
| 2026-05-05 02:39 | 50.48109 | -88.32373 | 36458 ft | 521 kts | 47° |
| 2026-05-05 02:39 | 50.52928 | -88.23849 | 36453 ft | 521 kts | 47° |
| 2026-05-05 02:40 | 50.57712 | -88.15359 | 36453 ft | 521 kts | 47° |
| 2026-05-05 02:40 | 50.62521 | -88.06795 | 36440 ft | 522 kts | 47° |
| 2026-05-05 02:41 | 50.67327 | -87.98208 | 36445 ft | 522 kts | 48° |
| 2026-05-05 02:41 | 50.72119 | -87.89617 | 36426 ft | 521 kts | 48° |
| 2026-05-05 02:42 | 50.76886 | -87.81043 | 36424 ft | 521 kts | 48° |
| 2026-05-05 02:42 | 50.81666 | -87.72416 | 36412 ft | 521 kts | 48° |
| 2026-05-05 02:43 | 50.86441 | -87.63768 | 36408 ft | 521 kts | 48° |
| 2026-05-05 02:43 | 50.91203 | -87.55115 | 36394 ft | 520 kts | 48° |
| 2026-05-05 02:44 | 50.95950 | -87.46462 | 36393 ft | 520 kts | 48° |
| 2026-05-05 02:44 | 51.00701 | -87.37769 | 36392 ft | 520 kts | 49° |
| 2026-05-05 02:45 | 51.05400 | -87.29142 | 36381 ft | 520 kts | 49° |
| 2026-05-05 02:45 | 51.10135 | -87.20422 | 36381 ft | 520 kts | 49° |
| 2026-05-05 02:46 | 51.14866 | -87.11676 | 36360 ft | 520 kts | 49° |
| 2026-05-05 02:46 | 51.19586 | -87.02924 | 36362 ft | 520 kts | 49° |
| 2026-05-05 02:47 | 51.24291 | -86.94166 | 36350 ft | 520 kts | 49° |
| 2026-05-05 02:47 | 51.28991 | -86.85390 | 36355 ft | 520 kts | 49° |
| 2026-05-05 02:48 | 51.33681 | -86.76601 | 36351 ft | 519 kts | 49° |
| 2026-05-05 02:48 | 51.38354 | -86.67815 | 36337 ft | 518 kts | 49° |
| 2026-05-05 02:49 | 51.42987 | -86.59073 | 36335 ft | 518 kts | 49° |
| 2026-05-05 02:49 | 51.47657 | -86.50232 | 36317 ft | 519 kts | 49° |
| 2026-05-05 02:50 | 51.52314 | -86.41383 | 36326 ft | 519 kts | 50° |
| 2026-05-05 02:50 | 51.56961 | -86.32526 | 36302 ft | 518 kts | 50° |
| 2026-05-05 02:51 | 51.61595 | -86.23659 | 36295 ft | 518 kts | 50° |
| 2026-05-05 02:51 | 51.66219 | -86.14780 | 36291 ft | 518 kts | 50° |
| 2026-05-05 02:52 | 51.70836 | -86.05886 | 36290 ft | 517 kts | 50° |
| 2026-05-05 02:52 | 51.75441 | -85.96983 | 36290 ft | 517 kts | 50° |
| 2026-05-05 02:53 | 51.80039 | -85.88063 | 36288 ft | 516 kts | 50° |
| 2026-05-05 02:53 | 51.84603 | -85.79178 | 36282 ft | 516 kts | 51° |
| 2026-05-05 02:54 | 51.89188 | -85.70220 | 36273 ft | 516 kts | 51° |
| 2026-05-05 02:54 | 51.93757 | -85.61261 | 36267 ft | 516 kts | 51° |
| 2026-05-05 02:55 | 51.98319 | -85.52285 | 36261 ft | 515 kts | 51° |
| 2026-05-05 02:55 | 52.02872 | -85.43296 | 36255 ft | 515 kts | 51° |
| 2026-05-05 02:56 | 52.07387 | -85.34348 | 36256 ft | 515 kts | 51° |
| 2026-05-05 02:56 | 52.11922 | -85.25330 | 36245 ft | 515 kts | 51° |
| 2026-05-05 02:57 | 52.16452 | -85.16290 | 36244 ft | 515 kts | 51° |
| 2026-05-05 02:57 | 52.20973 | -85.07237 | 36245 ft | 514 kts | 51° |
| 2026-05-05 02:58 | 52.25479 | -84.98181 | 36234 ft | 513 kts | 52° |
| 2026-05-05 02:58 | 52.29968 | -84.89125 | 36234 ft | 512 kts | 52° |
| 2026-05-05 02:59 | 52.34446 | -84.80060 | 36234 ft | 512 kts | 52° |
| 2026-05-05 02:59 | 52.38887 | -84.71037 | 36233 ft | 512 kts | 52° |
| 2026-05-05 03:00 | 52.43353 | -84.61933 | 36226 ft | 512 kts | 52° |
| 2026-05-05 03:00 | 52.47810 | -84.52814 | 36225 ft | 512 kts | 52° |
| 2026-05-05 03:01 | 52.52257 | -84.43681 | 36222 ft | 512 kts | 52° |
| 2026-05-05 03:01 | 52.56700 | -84.34525 | 36218 ft | 512 kts | 52° |
| 2026-05-05 03:02 | 52.61136 | -84.25349 | 36216 ft | 512 kts | 52° |
| 2026-05-05 03:02 | 52.65562 | -84.16160 | 36205 ft | 511 kts | 52° |
| 2026-05-05 03:03 | 52.69951 | -84.07018 | 36205 ft | 511 kts | 52° |
| 2026-05-05 03:03 | 52.74356 | -83.97805 | 36209 ft | 511 kts | 52° |
| 2026-05-05 03:04 | 52.78757 | -83.88569 | 36203 ft | 511 kts | 53° |
| 2026-05-05 03:04 | 52.83154 | -83.79307 | 36203 ft | 512 kts | 53° |
| 2026-05-05 03:05 | 52.87539 | -83.70037 | 36201 ft | 511 kts | 53° |
| 2026-05-05 03:05 | 52.91915 | -83.60754 | 36204 ft | 511 kts | 53° |
| 2026-05-05 03:06 | 52.96255 | -83.51509 | 36201 ft | 511 kts | 53° |
| 2026-05-05 03:06 | 53.00612 | -83.42196 | 36204 ft | 511 kts | 53° |
| 2026-05-05 03:07 | 53.04971 | -83.32845 | 36203 ft | 511 kts | 53° |
| 2026-05-05 03:07 | 53.09323 | -83.23474 | 36211 ft | 511 kts | 53° |
| 2026-05-05 03:08 | 53.13657 | -83.14106 | 36211 ft | 511 kts | 53° |
| 2026-05-05 03:08 | 53.17964 | -83.04762 | 36211 ft | 511 kts | 53° |
| 2026-05-05 03:09 | 53.22291 | -82.95341 | 36214 ft | 511 kts | 54° |
| 2026-05-05 03:09 | 53.26614 | -82.85892 | 36217 ft | 511 kts | 54° |
| 2026-05-05 03:10 | 53.30922 | -82.76442 | 36225 ft | 511 kts | 54° |
| 2026-05-05 03:10 | 53.35223 | -82.66970 | 36229 ft | 511 kts | 54° |
| 2026-05-05 03:11 | 53.39519 | -82.57474 | 36227 ft | 511 kts | 54° |
| 2026-05-05 03:11 | 53.43776 | -82.48028 | 36231 ft | 511 kts | 54° |
| 2026-05-05 03:12 | 53.48054 | -82.38502 | 36232 ft | 511 kts | 54° |
| 2026-05-05 03:12 | 53.52324 | -82.28956 | 36241 ft | 510 kts | 54° |
| 2026-05-05 03:13 | 53.56582 | -82.19401 | 36231 ft | 510 kts | 54° |
| 2026-05-05 03:13 | 53.60829 | -82.09833 | 36248 ft | 510 kts | 54° |
| 2026-05-05 03:14 | 53.65069 | -82.00246 | 36246 ft | 510 kts | 55° |
| 2026-05-05 03:14 | 53.69305 | -81.90630 | 36252 ft | 510 kts | 55° |
| 2026-05-05 03:15 | 53.73536 | -81.80991 | 36258 ft | 510 kts | 55° |
| 2026-05-05 03:15 | 53.77749 | -81.71355 | 36261 ft | 510 kts | 55° |
| 2026-05-05 03:16 | 53.81955 | -81.61696 | 36262 ft | 510 kts | 55° |
| 2026-05-05 03:16 | 53.86154 | -81.52015 | 36270 ft | 510 kts | 56° |
| 2026-05-05 03:17 | 53.90328 | -81.42357 | 36264 ft | 511 kts | 56° |
| 2026-05-05 03:17 | 53.94523 | -81.32613 | 36279 ft | 511 kts | 56° |
| 2026-05-05 03:18 | 53.98705 | -81.22862 | 36274 ft | 510 kts | 56° |
| 2026-05-05 03:18 | 54.02881 | -81.13085 | 36283 ft | 511 kts | 56° |
| 2026-05-05 03:19 | 54.09109 | -80.98431 | 36281 ft | 510 kts | 56° |
| 2026-05-05 03:19 | 54.13266 | -80.88598 | 36297 ft | 512 kts | 56° |
| 2026-05-05 03:20 | 54.16721 | -80.80401 | 36305 ft | 511 kts | 56° |
| 2026-05-05 03:20 | 54.20866 | -80.70539 | 36303 ft | 510 kts | 57° |
| 2026-05-05 03:21 | 54.24991 | -80.60681 | 36311 ft | 509 kts | 56° |
| 2026-05-05 03:21 | 54.29105 | -80.50800 | 36314 ft | 509 kts | 57° |
| 2026-05-05 03:22 | 54.33207 | -80.40919 | 36323 ft | 509 kts | 57° |
| 2026-05-05 03:22 | 54.37304 | -80.31012 | 36321 ft | 509 kts | 57° |
| 2026-05-05 03:23 | 54.41378 | -80.21116 | 36332 ft | 507 kts | 57° |
| 2026-05-05 03:23 | 54.45435 | -80.11220 | 36350 ft | 506 kts | 57° |
| 2026-05-05 03:24 | 54.49482 | -80.01311 | 36577 ft | 506 kts | 57° |
| 2026-05-05 03:24 | 54.51595 | -79.96460 | 36821 ft | 505 kts | 53° |
| 2026-05-05 03:24 | 54.53791 | -79.91822 | 37045 ft | 505 kts | 52° |
| 2026-05-05 03:25 | 54.56065 | -79.87202 | 37211 ft | 506 kts | 51° |
| 2026-05-05 03:25 | 54.58357 | -79.82596 | 37392 ft | 506 kts | 51° |
| 2026-05-05 03:25 | 54.60652 | -79.77968 | 37505 ft | 507 kts | 51° |
| 2026-05-05 03:25 | 54.62932 | -79.73327 | 37665 ft | 507 kts | 52° |
| 2026-05-05 03:26 | 54.65207 | -79.68651 | 37790 ft | 508 kts | 52° |
| 2026-05-05 03:26 | 54.67473 | -79.63963 | 37914 ft | 508 kts | 52° |
| 2026-05-05 03:26 | 54.69728 | -79.59270 | 38034 ft | 508 kts | 52° |
| 2026-05-05 03:26 | 54.71992 | -79.54544 | 38172 ft | 508 kts | 52° |
| 2026-05-05 03:27 | 54.74214 | -79.49894 | 38277 ft | 508 kts | 52° |
| 2026-05-05 03:27 | 54.76490 | -79.45125 | 38370 ft | 508 kts | 52° |
| 2026-05-05 03:27 | 54.80977 | -79.35694 | 38400 ft | 511 kts | 52° |
| 2026-05-05 03:28 | 54.85482 | -79.26196 | 38405 ft | 509 kts | 52° |
| 2026-05-05 03:28 | 54.89969 | -79.16699 | 38412 ft | 508 kts | 52° |
| 2026-05-05 03:29 | 54.94453 | -79.07170 | 38411 ft | 508 kts | 52° |
| 2026-05-05 03:29 | 54.98907 | -78.97670 | 38431 ft | 509 kts | 53° |
| 2026-05-05 03:30 | 55.03377 | -78.88096 | 38430 ft | 509 kts | 53° |
| 2026-05-05 03:30 | 55.07840 | -78.78502 | 38440 ft | 509 kts | 53° |
| 2026-05-05 03:31 | 55.12292 | -78.68893 | 38437 ft | 509 kts | 53° |
| 2026-05-05 03:31 | 55.16739 | -78.59256 | 38445 ft | 509 kts | 53° |
| 2026-05-05 03:32 | 55.21179 | -78.49596 | 38448 ft | 509 kts | 53° |
| 2026-05-05 03:32 | 55.25607 | -78.39928 | 38465 ft | 509 kts | 53° |
| 2026-05-05 03:33 | 55.30028 | -78.30234 | 38465 ft | 508 kts | 53° |
| 2026-05-05 03:33 | 55.34435 | -78.20533 | 38473 ft | 508 kts | 53° |
| 2026-05-05 03:34 | 55.38805 | -78.10874 | 38486 ft | 508 kts | 54° |
| 2026-05-05 03:34 | 55.43196 | -78.01127 | 38492 ft | 508 kts | 54° |
| 2026-05-05 03:35 | 55.47579 | -77.91362 | 38509 ft | 508 kts | 53° |
| 2026-05-05 03:35 | 55.51953 | -77.81580 | 38511 ft | 508 kts | 54° |
| 2026-05-05 03:36 | 55.56318 | -77.71778 | 38512 ft | 508 kts | 54° |
| 2026-05-05 03:36 | 55.60681 | -77.61939 | 38509 ft | 508 kts | 54° |
| 2026-05-05 03:37 | 55.65027 | -77.52103 | 38523 ft | 506 kts | 54° |
| 2026-05-05 03:37 | 55.69321 | -77.42338 | 38525 ft | 505 kts | 54° |
| 2026-05-05 03:38 | 55.73633 | -77.32499 | 38532 ft | 504 kts | 54° |
| 2026-05-05 03:38 | 55.77933 | -77.22646 | 38537 ft | 504 kts | 54° |
| 2026-05-05 03:39 | 55.82222 | -77.12779 | 38536 ft | 504 kts | 54° |
| 2026-05-05 03:39 | 55.86505 | -77.02885 | 38553 ft | 504 kts | 54° |
| 2026-05-05 03:40 | 55.90780 | -76.92970 | 38553 ft | 504 kts | 55° |
| 2026-05-05 03:40 | 55.95047 | -76.83040 | 38557 ft | 505 kts | 55° |
| 2026-05-05 03:41 | 55.99284 | -76.73136 | 38571 ft | 505 kts | 55° |
| 2026-05-05 03:41 | 56.03538 | -76.63148 | 38582 ft | 505 kts | 55° |
| 2026-05-05 03:42 | 56.07782 | -76.53129 | 38583 ft | 505 kts | 55° |
| 2026-05-05 03:42 | 56.12020 | -76.43083 | 38599 ft | 505 kts | 55° |
| 2026-05-05 03:43 | 56.16249 | -76.33034 | 38592 ft | 504 kts | 55° |
| 2026-05-05 03:43 | 56.20446 | -76.23026 | 38609 ft | 504 kts | 55° |
| 2026-05-05 03:44 | 56.24655 | -76.12940 | 38607 ft | 504 kts | 55° |
| 2026-05-05 03:44 | 56.28860 | -76.02819 | 38623 ft | 505 kts | 56° |
| 2026-05-05 03:45 | 56.33068 | -75.92648 | 38618 ft | 505 kts | 56° |
| 2026-05-05 03:45 | 56.37234 | -75.82539 | 38638 ft | 504 kts | 56° |
| 2026-05-05 03:46 | 56.41408 | -75.72365 | 38638 ft | 504 kts | 56° |
| 2026-05-05 03:46 | 56.45578 | -75.62161 | 38641 ft | 504 kts | 56° |
| 2026-05-05 03:47 | 56.49738 | -75.51937 | 38652 ft | 504 kts | 56° |
| 2026-05-05 03:47 | 56.53885 | -75.41703 | 38652 ft | 504 kts | 56° |
| 2026-05-05 03:48 | 56.58018 | -75.31459 | 38654 ft | 502 kts | 56° |
| 2026-05-05 03:48 | 56.62104 | -75.21290 | 38664 ft | 501 kts | 56° |
| 2026-05-05 03:49 | 56.66207 | -75.11034 | 38664 ft | 501 kts | 56° |
| 2026-05-05 03:49 | 56.70301 | -75.00756 | 38672 ft | 501 kts | 56° |
| 2026-05-05 03:50 | 56.74388 | -74.90455 | 38667 ft | 501 kts | 56° |
| 2026-05-05 03:50 | 56.78461 | -74.80143 | 38681 ft | 501 kts | 57° |
| 2026-05-05 03:51 | 56.82529 | -74.69802 | 38680 ft | 501 kts | 57° |
| 2026-05-05 03:51 | 56.86560 | -74.59512 | 38678 ft | 501 kts | 57° |
| 2026-05-05 03:52 | 56.90604 | -74.49143 | 38690 ft | 500 kts | 57° |
| 2026-05-05 03:52 | 56.94635 | -74.38760 | 38691 ft | 500 kts | 57° |
| 2026-05-05 03:53 | 56.98654 | -74.28367 | 38700 ft | 500 kts | 57° |
| 2026-05-05 03:53 | 57.02672 | -74.17933 | 38703 ft | 500 kts | 57° |
| 2026-05-05 03:54 | 57.06678 | -74.07481 | 38705 ft | 500 kts | 57° |
| 2026-05-05 03:54 | 57.10652 | -73.97068 | 38707 ft | 500 kts | 57° |
| 2026-05-05 03:55 | 57.14638 | -73.86580 | 38716 ft | 500 kts | 57° |
| 2026-05-05 03:55 | 57.18619 | -73.76062 | 38714 ft | 500 kts | 58° |
| 2026-05-05 03:56 | 57.22584 | -73.65536 | 38720 ft | 499 kts | 58° |
| 2026-05-05 03:56 | 57.26540 | -73.54989 | 38726 ft | 499 kts | 58° |
| 2026-05-05 03:57 | 57.30488 | -73.44416 | 38730 ft | 499 kts | 58° |
| 2026-05-05 03:57 | 57.34429 | -73.33818 | 38728 ft | 499 kts | 58° |
| 2026-05-05 03:58 | 57.38357 | -73.23207 | 38735 ft | 499 kts | 58° |
| 2026-05-05 03:58 | 57.42250 | -73.12643 | 38737 ft | 499 kts | 58° |
| 2026-05-05 03:59 | 57.46160 | -73.01987 | 38748 ft | 499 kts | 58° |
| 2026-05-05 03:59 | 57.50083 | -72.91250 | 38742 ft | 498 kts | 58° |
| 2026-05-05 04:00 | 57.53930 | -72.80672 | 38760 ft | 496 kts | 59° |
| 2026-05-05 04:00 | 57.57788 | -72.70015 | 38760 ft | 496 kts | 59° |
| 2026-05-05 04:01 | 57.61638 | -72.59333 | 38766 ft | 496 kts | 59° |
| 2026-05-05 04:01 | 57.65479 | -72.48630 | 38766 ft | 496 kts | 59° |
| 2026-05-05 04:02 | 57.69309 | -72.37908 | 38765 ft | 496 kts | 59° |
| 2026-05-05 04:02 | 57.73135 | -72.27151 | 38766 ft | 496 kts | 59° |
| 2026-05-05 04:03 | 57.76951 | -72.16375 | 38764 ft | 496 kts | 59° |
| 2026-05-05 04:03 | 57.80749 | -72.05599 | 38774 ft | 495 kts | 59° |
| 2026-05-05 04:04 | 57.84514 | -71.94871 | 38771 ft | 495 kts | 59° |
| 2026-05-05 04:04 | 57.88289 | -71.84062 | 38777 ft | 495 kts | 59° |
| 2026-05-05 04:05 | 57.92051 | -71.73242 | 38776 ft | 495 kts | 60° |
| 2026-05-05 04:05 | 57.95814 | -71.62370 | 38785 ft | 495 kts | 60° |
| 2026-05-05 04:06 | 57.99560 | -71.51501 | 38779 ft | 495 kts | 60° |
| 2026-05-05 04:06 | 58.02668 | -71.42444 | 38788 ft | 494 kts | 60° |
| 2026-05-05 04:07 | 58.06395 | -71.31535 | 38785 ft | 494 kts | 60° |
| 2026-05-05 04:07 | 58.10112 | -71.20607 | 38779 ft | 494 kts | 60° |
| 2026-05-05 04:08 | 58.13821 | -71.09652 | 38786 ft | 494 kts | 60° |
| 2026-05-05 04:08 | 58.17515 | -70.98691 | 38784 ft | 493 kts | 60° |
| 2026-05-05 04:09 | 58.21176 | -70.87776 | 38791 ft | 494 kts | 60° |
| 2026-05-05 04:09 | 58.24856 | -70.76755 | 38789 ft | 494 kts | 61° |
| 2026-05-05 04:10 | 58.28526 | -70.65711 | 38794 ft | 494 kts | 61° |
| 2026-05-05 04:10 | 58.32187 | -70.54645 | 38789 ft | 494 kts | 61° |
| 2026-05-05 04:11 | 58.35836 | -70.43562 | 38793 ft | 494 kts | 61° |
| 2026-05-05 04:11 | 58.39476 | -70.32454 | 38788 ft | 494 kts | 61° |
| 2026-05-05 04:12 | 58.43111 | -70.21311 | 38791 ft | 495 kts | 61° |
| 2026-05-05 04:12 | 58.46743 | -70.10123 | 38797 ft | 495 kts | 61° |
| 2026-05-05 04:13 | 58.50338 | -69.98990 | 38794 ft | 495 kts | 62° |
| 2026-05-05 04:13 | 58.53927 | -69.87738 | 38794 ft | 495 kts | 62° |
| 2026-05-05 04:14 | 58.57494 | -69.76458 | 38776 ft | 495 kts | 62° |
| 2026-05-05 04:14 | 58.61062 | -69.65124 | 38788 ft | 496 kts | 62° |
| 2026-05-05 04:15 | 58.64620 | -69.53777 | 38786 ft | 496 kts | 62° |
| 2026-05-05 04:15 | 58.68172 | -69.42401 | 38784 ft | 495 kts | 63° |
| 2026-05-05 04:16 | 58.71678 | -69.31117 | 38785 ft | 493 kts | 63° |
| 2026-05-05 04:16 | 58.75189 | -69.19758 | 38785 ft | 493 kts | 63° |
| 2026-05-05 04:17 | 58.78686 | -69.08386 | 38775 ft | 493 kts | 63° |
| 2026-05-05 04:17 | 58.82181 | -68.96967 | 38775 ft | 493 kts | 63° |
| 2026-05-05 04:18 | 58.85637 | -68.85624 | 38777 ft | 493 kts | 63° |
| 2026-05-05 04:18 | 58.89105 | -68.74183 | 38760 ft | 493 kts | 63° |
| 2026-05-05 04:19 | 58.92560 | -68.62730 | 38763 ft | 493 kts | 63° |
| 2026-05-05 04:19 | 58.96009 | -68.51239 | 38737 ft | 492 kts | 64° |
| 2026-05-05 04:20 | 58.99438 | -68.39763 | 38758 ft | 492 kts | 64° |
| 2026-05-05 04:20 | 59.02863 | -68.28236 | 38741 ft | 493 kts | 64° |
| 2026-05-05 04:21 | 59.06277 | -68.16691 | 38738 ft | 493 kts | 64° |
| 2026-05-05 04:21 | 59.09659 | -68.05198 | 38738 ft | 492 kts | 64° |
| 2026-05-05 04:22 | 59.13055 | -67.93600 | 38727 ft | 492 kts | 64° |
| 2026-05-05 04:22 | 59.16437 | -67.81991 | 38723 ft | 493 kts | 64° |
| 2026-05-05 04:23 | 59.19817 | -67.70328 | 38727 ft | 494 kts | 65° |
| 2026-05-05 04:23 | 59.23191 | -67.58629 | 38707 ft | 494 kts | 65° |
| 2026-05-05 04:24 | 59.26518 | -67.47037 | 38717 ft | 491 kts | 65° |
| 2026-05-05 04:25 | 59.31503 | -67.29551 | 38716 ft | 490 kts | 65° |
| 2026-05-05 04:25 | 59.34810 | -67.17874 | 38698 ft | 490 kts | 65° |
| 2026-05-05 04:26 | 59.38110 | -67.06167 | 38698 ft | 490 kts | 65° |
| 2026-05-05 04:26 | 59.41399 | -66.94436 | 38715 ft | 490 kts | 65° |
| 2026-05-05 04:27 | 59.44674 | -66.82696 | 38703 ft | 490 kts | 65° |
| 2026-05-05 04:27 | 59.47941 | -66.70925 | 38687 ft | 490 kts | 65° |
| 2026-05-05 04:28 | 59.51194 | -66.59144 | 38699 ft | 488 kts | 66° |
| 2026-05-05 04:28 | 59.54403 | -66.47464 | 38677 ft | 487 kts | 66° |
| 2026-05-05 04:29 | 59.57618 | -66.35698 | 38686 ft | 487 kts | 66° |
| 2026-05-05 04:29 | 59.60820 | -66.23916 | 38690 ft | 487 kts | 66° |
| 2026-05-05 04:30 | 59.64012 | -66.12113 | 38687 ft | 487 kts | 66° |
| 2026-05-05 04:30 | 59.67189 | -66.00302 | 38671 ft | 486 kts | 66° |
| 2026-05-05 04:31 | 59.70360 | -65.88454 | 38646 ft | 486 kts | 66° |
| 2026-05-05 04:31 | 59.73522 | -65.76571 | 38665 ft | 488 kts | 66° |
| 2026-05-05 04:32 | 59.76679 | -65.64649 | 38646 ft | 487 kts | 66° |
| 2026-05-05 04:32 | 59.79790 | -65.52849 | 38658 ft | 484 kts | 67° |
| 2026-05-05 04:33 | 59.82896 | -65.40994 | 38658 ft | 483 kts | 67° |
| 2026-05-05 04:33 | 59.85989 | -65.29119 | 38653 ft | 484 kts | 67° |
| 2026-05-05 04:34 | 59.89078 | -65.17204 | 38640 ft | 484 kts | 67° |
| 2026-05-05 04:34 | 59.92159 | -65.05252 | 38664 ft | 485 kts | 67° |
| 2026-05-05 04:35 | 59.95236 | -64.93256 | 38663 ft | 485 kts | 67° |
| 2026-05-05 04:35 | 59.98280 | -64.81326 | 38658 ft | 485 kts | 67° |
| 2026-05-05 04:36 | 60.01333 | -64.69291 | 38661 ft | 485 kts | 68° |
| 2026-05-05 04:36 | 60.04381 | -64.57215 | 38669 ft | 487 kts | 67° |
| 2026-05-05 04:37 | 60.07425 | -64.45085 | 38670 ft | 487 kts | 67° |
| 2026-05-05 04:37 | 60.10439 | -64.33009 | 38674 ft | 486 kts | 68° |
| 2026-05-05 04:38 | 60.13457 | -64.20852 | 38672 ft | 486 kts | 68° |
| 2026-05-05 04:38 | 60.16465 | -64.08667 | 38673 ft | 486 kts | 68° |
| 2026-05-05 04:39 | 60.19455 | -63.96488 | 38658 ft | 486 kts | 68° |
| 2026-05-05 04:39 | 60.22435 | -63.84280 | 38651 ft | 486 kts | 68° |
| 2026-05-05 04:40 | 60.25403 | -63.72055 | 38648 ft | 486 kts | 68° |
| 2026-05-05 04:40 | 60.28339 | -63.59894 | 38622 ft | 485 kts | 68° |
| 2026-05-05 04:41 | 60.31276 | -63.47663 | 38635 ft | 483 kts | 69° |
| 2026-05-05 04:41 | 60.34194 | -63.35437 | 38635 ft | 483 kts | 69° |
| 2026-05-05 04:42 | 60.37101 | -63.23187 | 38612 ft | 483 kts | 69° |
| 2026-05-05 04:42 | 60.39977 | -63.11002 | 38608 ft | 483 kts | 69° |
| 2026-05-05 04:43 | 60.42857 | -62.98732 | 38625 ft | 482 kts | 69° |
| 2026-05-05 04:43 | 60.45723 | -62.86448 | 38629 ft | 482 kts | 69° |
| 2026-05-05 04:44 | 60.48577 | -62.74148 | 38624 ft | 482 kts | 69° |
| 2026-05-05 04:44 | 60.51425 | -62.61802 | 38612 ft | 482 kts | 69° |
| 2026-05-05 04:45 | 60.54249 | -62.49495 | 38629 ft | 480 kts | 69° |
| 2026-05-05 04:45 | 60.57058 | -62.37181 | 38595 ft | 479 kts | 69° |
| 2026-05-05 04:46 | 60.59831 | -62.24945 | 38616 ft | 480 kts | 70° |
| 2026-05-05 04:46 | 60.62616 | -62.12590 | 38624 ft | 480 kts | 70° |
| 2026-05-05 04:47 | 60.65392 | -62.00206 | 38627 ft | 480 kts | 70° |
| 2026-05-05 04:47 | 60.68157 | -61.87796 | 38624 ft | 480 kts | 70° |
| 2026-05-05 04:48 | 60.70908 | -61.75380 | 38624 ft | 480 kts | 70° |
| 2026-05-05 04:48 | 60.73625 | -61.63043 | 38622 ft | 479 kts | 70° |
| 2026-05-05 04:49 | 60.76361 | -61.50548 | 38633 ft | 479 kts | 70° |
| 2026-05-05 04:49 | 60.79063 | -61.38144 | 38618 ft | 475 kts | 70° |
| 2026-05-05 04:50 | 60.81734 | -61.25794 | 38645 ft | 474 kts | 70° |
| 2026-05-05 04:50 | 60.84393 | -61.13421 | 38645 ft | 474 kts | 71° |
| 2026-05-05 04:51 | 60.87040 | -61.01037 | 38649 ft | 474 kts | 71° |
| 2026-05-05 04:51 | 60.89678 | -60.88625 | 38638 ft | 474 kts | 71° |
| 2026-05-05 04:52 | 60.92291 | -60.76248 | 38657 ft | 476 kts | 71° |
| 2026-05-05 04:52 | 60.94917 | -60.63745 | 38652 ft | 476 kts | 71° |
| 2026-05-05 04:53 | 60.97534 | -60.51208 | 38650 ft | 476 kts | 71° |
| 2026-05-05 04:53 | 61.00135 | -60.38673 | 38661 ft | 476 kts | 71° |
| 2026-05-05 04:54 | 61.02725 | -60.26112 | 38661 ft | 476 kts | 71° |
| 2026-05-05 04:54 | 61.05303 | -60.13528 | 38664 ft | 476 kts | 71° |
| 2026-05-05 04:55 | 61.07875 | -60.00898 | 38672 ft | 477 kts | 71° |
| 2026-05-05 04:55 | 61.10423 | -59.88310 | 38672 ft | 477 kts | 71° |
| 2026-05-05 04:56 | 61.12972 | -59.75638 | 38680 ft | 477 kts | 71° |
| 2026-05-05 04:56 | 61.15098 | -59.65008 | 38680 ft | 477 kts | 72° |
| 2026-05-05 04:57 | 61.17608 | -59.52383 | 38694 ft | 477 kts | 72° |
| 2026-05-05 04:57 | 61.20125 | -59.39645 | 38694 ft | 477 kts | 72° |
| 2026-05-05 04:58 | 61.22625 | -59.26909 | 38687 ft | 476 kts | 72° |
| 2026-05-05 04:58 | 61.25112 | -59.14161 | 38700 ft | 475 kts | 72° |
| 2026-05-05 04:59 | 61.27581 | -59.01422 | 38700 ft | 475 kts | 72° |
| 2026-05-05 04:59 | 61.30026 | -58.88731 | 38700 ft | 475 kts | 72° |
| 2026-05-05 05:00 | 61.32473 | -58.75943 | 38700 ft | 475 kts | 72° |
| 2026-05-05 05:00 | 61.34907 | -58.63137 | 38701 ft | 475 kts | 72° |
| 2026-05-05 05:01 | 61.37336 | -58.50270 | 38710 ft | 478 kts | 72° |
| 2026-05-05 05:01 | 61.39761 | -58.37348 | 38710 ft | 478 kts | 72° |
| 2026-05-05 05:02 | 61.42174 | -58.24408 | 38713 ft | 478 kts | 72° |
| 2026-05-05 05:02 | 61.44561 | -58.11524 | 38727 ft | 477 kts | 73° |
| 2026-05-05 05:03 | 61.46927 | -57.98581 | 38741 ft | 476 kts | 73° |
| 2026-05-05 05:03 | 61.49099 | -57.85527 | 38722 ft | 475 kts | 75° |
| 2026-05-05 05:04 | 61.51189 | -57.72364 | 38738 ft | 477 kts | 75° |
| 2026-05-05 05:04 | 61.53282 | -57.59153 | 38751 ft | 477 kts | 75° |
| 2026-05-05 05:05 | 61.55365 | -57.46024 | 38753 ft | 477 kts | 75° |
| 2026-05-05 05:05 | 61.57453 | -57.32814 | 38764 ft | 477 kts | 75° |
| 2026-05-05 05:06 | 61.59531 | -57.19568 | 38760 ft | 477 kts | 75° |
| 2026-05-05 05:06 | 61.61593 | -57.06321 | 38752 ft | 476 kts | 76° |
| 2026-05-05 05:07 | 61.63642 | -56.93064 | 38779 ft | 478 kts | 76° |
| 2026-05-05 05:07 | 61.65673 | -56.79821 | 38776 ft | 479 kts | 76° |
| 2026-05-05 05:08 | 61.67702 | -56.66456 | 38790 ft | 479 kts | 76° |
| 2026-05-05 05:08 | 61.69718 | -56.53095 | 38790 ft | 479 kts | 76° |
| 2026-05-05 05:09 | 61.71725 | -56.39701 | 38791 ft | 479 kts | 76° |
| 2026-05-05 05:09 | 61.73718 | -56.26292 | 38807 ft | 479 kts | 77° |
| 2026-05-05 05:10 | 61.75696 | -56.12865 | 38810 ft | 480 kts | 76° |
| 2026-05-05 05:10 | 61.77672 | -55.99353 | 38814 ft | 482 kts | 77° |
| 2026-05-05 05:11 | 61.79635 | -55.85836 | 38820 ft | 480 kts | 76° |
| 2026-05-05 05:11 | 61.81577 | -55.72325 | 38826 ft | 480 kts | 77° |
| 2026-05-05 05:12 | 61.83495 | -55.58894 | 38843 ft | 480 kts | 76° |
| 2026-05-05 05:12 | 61.85413 | -55.45363 | 38846 ft | 480 kts | 77° |
| 2026-05-05 05:13 | 61.87316 | -55.31797 | 38852 ft | 480 kts | 76° |
| 2026-05-05 05:13 | 61.89210 | -55.18186 | 38862 ft | 482 kts | 76° |
| 2026-05-05 05:14 | 61.91100 | -55.04505 | 38860 ft | 482 kts | 76° |
| 2026-05-05 05:14 | 61.92974 | -54.90824 | 38877 ft | 482 kts | 77° |
| 2026-05-05 05:15 | 61.94818 | -54.77236 | 38871 ft | 481 kts | 77° |
| 2026-05-05 05:15 | 61.96659 | -54.63579 | 38890 ft | 480 kts | 77° |
| 2026-05-05 05:16 | 61.98478 | -54.49928 | 38878 ft | 480 kts | 77° |
| 2026-05-05 05:16 | 62.00290 | -54.36193 | 38893 ft | 484 kts | 77° |
| 2026-05-05 05:17 | 62.02104 | -54.22363 | 38905 ft | 485 kts | 76° |
| 2026-05-05 05:17 | 62.03911 | -54.08514 | 38906 ft | 485 kts | 78° |
| 2026-05-05 05:18 | 62.05690 | -53.94723 | 38925 ft | 485 kts | 77° |
| 2026-05-05 05:18 | 62.07465 | -53.80840 | 38924 ft | 484 kts | 78° |
| 2026-05-05 05:19 | 62.09220 | -53.66958 | 38922 ft | 483 kts | 77° |
| 2026-05-05 05:19 | 62.10962 | -53.53050 | 38939 ft | 486 kts | 77° |
| 2026-05-05 05:20 | 62.12699 | -53.39062 | 38945 ft | 488 kts | 77° |
| 2026-05-05 05:20 | 62.14427 | -53.25028 | 38953 ft | 488 kts | 77° |
| 2026-05-05 05:21 | 62.16146 | -53.10980 | 38955 ft | 488 kts | 77° |
| 2026-05-05 05:21 | 62.17836 | -52.97018 | 38969 ft | 488 kts | 77° |
| 2026-05-05 05:22 | 62.19520 | -52.82940 | 38966 ft | 488 kts | 78° |
| 2026-05-05 05:22 | 62.21186 | -52.68856 | 38977 ft | 489 kts | 77° |
| 2026-05-05 05:23 | 62.22849 | -52.54687 | 38981 ft | 490 kts | 77° |
| 2026-05-05 05:23 | 62.24500 | -52.40519 | 38979 ft | 488 kts | 77° |
| 2026-05-05 05:24 | 62.26124 | -52.26375 | 38983 ft | 488 kts | 77° |
| 2026-05-05 05:24 | 62.27725 | -52.12296 | 38993 ft | 488 kts | 78° |
| 2026-05-05 05:25 | 62.29327 | -51.98115 | 38990 ft | 488 kts | 78° |
| 2026-05-05 05:25 | 62.30916 | -51.83902 | 38999 ft | 489 kts | 77° |
| 2026-05-05 05:26 | 62.32491 | -51.69658 | 39000 ft | 489 kts | 77° |
| 2026-05-05 05:26 | 62.34052 | -51.55392 | 39004 ft | 489 kts | 77° |
| 2026-05-05 05:27 | 62.35595 | -51.41144 | 38994 ft | 489 kts | 77° |
| 2026-05-05 05:27 | 62.37873 | -51.19826 | 39010 ft | 488 kts | 77° |
| 2026-05-05 05:28 | 62.39381 | -51.05529 | 39010 ft | 488 kts | 78° |
| 2026-05-05 05:28 | 62.40873 | -50.91230 | 39010 ft | 488 kts | 78° |
| 2026-05-05 05:29 | 62.42348 | -50.76931 | 39012 ft | 488 kts | 78° |
| 2026-05-05 05:29 | 62.43810 | -50.62611 | 39015 ft | 488 kts | 78° |
| 2026-05-05 05:30 | 62.45256 | -50.48283 | 39014 ft | 488 kts | 78° |
| 2026-05-05 05:30 | 62.46689 | -50.33932 | 39015 ft | 488 kts | 78° |
| 2026-05-05 05:31 | 62.48107 | -50.19572 | 39012 ft | 488 kts | 78° |
| 2026-05-05 05:31 | 62.49503 | -50.05248 | 39022 ft | 493 kts | 78° |
| 2026-05-05 05:32 | 62.50351 | -49.90489 | 39019 ft | 494 kts | 85° |
| 2026-05-05 05:32 | 62.50896 | -49.75644 | 39035 ft | 494 kts | 86° |
| 2026-05-05 05:33 | 62.51375 | -49.60792 | 39034 ft | 494 kts | 86° |
| 2026-05-05 05:33 | 62.51844 | -49.45924 | 39032 ft | 494 kts | 86° |
| 2026-05-05 05:34 | 62.52307 | -49.31078 | 39052 ft | 494 kts | 86° |
| 2026-05-05 05:34 | 62.52758 | -49.16218 | 39052 ft | 494 kts | 86° |
| 2026-05-05 05:35 | 62.53191 | -49.01414 | 39061 ft | 499 kts | 86° |
| 2026-05-05 05:35 | 62.53617 | -48.86335 | 39073 ft | 503 kts | 86° |
| 2026-05-05 05:36 | 62.54026 | -48.71222 | 39070 ft | 503 kts | 86° |
| 2026-05-05 05:36 | 62.54419 | -48.56114 | 39070 ft | 502 kts | 86° |
| 2026-05-05 05:37 | 62.54796 | -48.41001 | 39090 ft | 502 kts | 87° |
| 2026-05-05 05:37 | 62.55156 | -48.25877 | 39090 ft | 503 kts | 87° |
| 2026-05-05 05:38 | 62.55500 | -48.10741 | 39090 ft | 502 kts | 87° |
| 2026-05-05 05:38 | 62.55826 | -47.95722 | 39095 ft | 502 kts | 87° |
| 2026-05-05 05:39 | 62.56138 | -47.80586 | 39101 ft | 502 kts | 87° |
| 2026-05-05 05:39 | 62.56433 | -47.65419 | 39109 ft | 502 kts | 87° |
| 2026-05-05 05:40 | 62.56712 | -47.50291 | 39112 ft | 502 kts | 88° |
| 2026-05-05 05:40 | 62.56974 | -47.35168 | 39109 ft | 502 kts | 88° |
| 2026-05-05 05:41 | 62.57219 | -47.20116 | 39129 ft | 502 kts | 88° |
| 2026-05-05 05:41 | 62.57448 | -47.04979 | 39126 ft | 502 kts | 88° |
| 2026-05-05 05:42 | 62.57662 | -46.89777 | 39123 ft | 506 kts | 88° |
| 2026-05-05 05:42 | 62.57861 | -46.74481 | 39136 ft | 507 kts | 88° |
| 2026-05-05 05:43 | 62.58043 | -46.59192 | 39136 ft | 507 kts | 88° |
| 2026-05-05 05:43 | 62.58209 | -46.43893 | 39145 ft | 507 kts | 88° |
| 2026-05-05 05:44 | 62.58356 | -46.28711 | 39148 ft | 507 kts | 88° |
| 2026-05-05 05:44 | 62.58489 | -46.13322 | 39144 ft | 507 kts | 88° |
| 2026-05-05 05:45 | 62.58603 | -45.98138 | 39161 ft | 507 kts | 88° |
| 2026-05-05 05:45 | 62.58703 | -45.82749 | 39159 ft | 511 kts | 88° |
| 2026-05-05 05:46 | 62.58786 | -45.67332 | 39159 ft | 511 kts | 88° |
| 2026-05-05 05:46 | 62.58842 | -45.54499 | 39168 ft | 511 kts | 89° |
| 2026-05-05 05:47 | 62.58893 | -45.39071 | 39169 ft | 511 kts | 89° |
| 2026-05-05 05:47 | 62.58927 | -45.23624 | 39167 ft | 511 kts | 89° |
| 2026-05-05 05:48 | 62.58945 | -45.08176 | 39176 ft | 511 kts | 89° |
| 2026-05-05 05:48 | 62.58945 | -44.92753 | 39179 ft | 512 kts | 89° |
| 2026-05-05 05:49 | 62.58928 | -44.77269 | 39169 ft | 514 kts | 89° |
| 2026-05-05 05:49 | 62.58895 | -44.61728 | 39171 ft | 514 kts | 89° |
| 2026-05-05 05:50 | 62.58844 | -44.46297 | 39169 ft | 514 kts | 89° |
| 2026-05-05 05:50 | 62.58776 | -44.30754 | 39155 ft | 514 kts | 89° |
| 2026-05-05 05:51 | 62.58691 | -44.15236 | 39156 ft | 515 kts | 89° |
| 2026-05-05 05:51 | 62.58588 | -43.99703 | 39152 ft | 515 kts | 89° |
| 2026-05-05 05:52 | 62.58467 | -43.84149 | 39232 ft | 516 kts | 89° |
| 2026-05-05 05:52 | 62.58330 | -43.68530 | 39233 ft | 517 kts | 89° |
| 2026-05-05 05:53 | 62.58176 | -43.53008 | 39383 ft | 518 kts | 89° |
| 2026-05-05 05:53 | 62.58003 | -43.37297 | 39384 ft | 518 kts | 90° |
| 2026-05-05 05:54 | 62.57812 | -43.21765 | 39386 ft | 518 kts | 90° |
| 2026-05-05 05:54 | 62.57605 | -43.06144 | 39413 ft | 518 kts | 90° |
| 2026-05-05 05:55 | 62.57382 | -42.90559 | 39423 ft | 517 kts | 90° |
| 2026-05-05 05:55 | 62.57139 | -42.74976 | 39414 ft | 515 kts | 90° |
| 2026-05-05 05:56 | 62.56881 | -42.59448 | 39418 ft | 515 kts | 90° |
| 2026-05-05 05:56 | 62.56607 | -42.43925 | 39428 ft | 515 kts | 90° |
| 2026-05-05 05:57 | 62.56314 | -42.28389 | 39424 ft | 515 kts | 90° |
| 2026-05-05 05:57 | 62.56006 | -42.12972 | 39426 ft | 515 kts | 90° |
| 2026-05-05 05:58 | 62.55679 | -41.97454 | 39424 ft | 515 kts | 91° |
| 2026-05-05 05:58 | 62.55335 | -41.81935 | 39421 ft | 515 kts | 90° |
| 2026-05-05 05:59 | 62.54973 | -41.66429 | 39419 ft | 514 kts | 91° |
| 2026-05-05 05:59 | 62.54596 | -41.50957 | 39420 ft | 514 kts | 91° |
| 2026-05-05 06:00 | 62.54202 | -41.35493 | 39412 ft | 514 kts | 91° |
| 2026-05-05 06:00 | 62.53790 | -41.20012 | 39415 ft | 514 kts | 91° |
| 2026-05-05 06:01 | 62.53361 | -41.04532 | 39394 ft | 514 kts | 91° |
| 2026-05-05 06:01 | 62.52915 | -40.89075 | 39392 ft | 514 kts | 91° |
| 2026-05-05 06:02 | 62.52455 | -40.73730 | 39389 ft | 514 kts | 91° |
| 2026-05-05 06:02 | 62.51975 | -40.58293 | 39381 ft | 514 kts | 92° |
| 2026-05-05 06:03 | 62.51478 | -40.42847 | 39376 ft | 514 kts | 92° |
| 2026-05-05 06:03 | 62.50965 | -40.27422 | 39378 ft | 514 kts | 92° |
| 2026-05-05 06:04 | 62.50434 | -40.11991 | 39370 ft | 514 kts | 92° |
| 2026-05-05 06:04 | 62.49847 | -39.96576 | 39365 ft | 514 kts | 94° |
| 2026-05-05 06:05 | 62.48943 | -39.81314 | 39374 ft | 515 kts | 96° |
| 2026-05-05 06:05 | 62.47912 | -39.65953 | 39349 ft | 516 kts | 96° |
| 2026-05-05 06:06 | 62.46885 | -39.50573 | 39345 ft | 516 kts | 96° |
| 2026-05-05 06:06 | 62.45869 | -39.35211 | 39346 ft | 516 kts | 96° |
| 2026-05-05 06:07 | 62.44843 | -39.19837 | 39346 ft | 516 kts | 96° |
| 2026-05-05 06:07 | 62.43808 | -39.04571 | 39336 ft | 516 kts | 96° |
| 2026-05-05 06:08 | 62.42747 | -38.89214 | 39333 ft | 517 kts | 96° |
| 2026-05-05 06:08 | 62.41671 | -38.73888 | 39333 ft | 517 kts | 96° |
| 2026-05-05 06:09 | 62.40575 | -38.58546 | 39328 ft | 517 kts | 96° |
| 2026-05-05 06:09 | 62.39462 | -38.43195 | 39323 ft | 518 kts | 97° |
| 2026-05-05 06:10 | 62.38330 | -38.27836 | 39315 ft | 518 kts | 97° |
| 2026-05-05 06:10 | 62.37189 | -38.12593 | 39313 ft | 518 kts | 97° |
| 2026-05-05 06:11 | 62.36024 | -37.97273 | 39314 ft | 518 kts | 97° |
| 2026-05-05 06:11 | 62.34841 | -37.81946 | 39298 ft | 518 kts | 97° |
| 2026-05-05 06:12 | 62.33644 | -37.66657 | 39302 ft | 518 kts | 97° |
| 2026-05-05 06:12 | 62.32428 | -37.51370 | 39306 ft | 519 kts | 97° |
| 2026-05-05 06:13 | 62.31192 | -37.36036 | 39299 ft | 520 kts | 97° |
| 2026-05-05 06:13 | 62.29938 | -37.20704 | 39292 ft | 520 kts | 98° |
| 2026-05-05 06:14 | 62.28665 | -37.05373 | 39291 ft | 520 kts | 98° |
| 2026-05-05 06:14 | 62.27384 | -36.90160 | 39281 ft | 520 kts | 98° |
| 2026-05-05 06:15 | 62.26080 | -36.74876 | 39281 ft | 520 kts | 98° |
| 2026-05-05 06:15 | 62.24761 | -36.59622 | 39280 ft | 520 kts | 98° |
| 2026-05-05 06:16 | 62.23423 | -36.44366 | 39286 ft | 522 kts | 98° |
| 2026-05-05 06:16 | 62.22061 | -36.29025 | 39276 ft | 525 kts | 98° |
| 2026-05-05 06:17 | 62.20676 | -36.13652 | 39273 ft | 525 kts | 98° |
| 2026-05-05 06:17 | 62.19275 | -35.98298 | 39263 ft | 525 kts | 98° |
| 2026-05-05 06:18 | 62.17857 | -35.82960 | 39264 ft | 524 kts | 99° |
| 2026-05-05 06:18 | 62.16424 | -35.67650 | 39265 ft | 524 kts | 99° |
| 2026-05-05 06:19 | 62.14974 | -35.52359 | 39260 ft | 524 kts | 99° |
| 2026-05-05 06:19 | 62.13517 | -35.37170 | 39261 ft | 526 kts | 99° |
| 2026-05-05 06:20 | 62.12026 | -35.21829 | 39254 ft | 528 kts | 99° |
| 2026-05-05 06:20 | 62.10515 | -35.06480 | 39254 ft | 528 kts | 99° |
| 2026-05-05 06:21 | 62.08988 | -34.91149 | 39252 ft | 528 kts | 99° |
| 2026-05-05 06:21 | 62.07443 | -34.75828 | 39246 ft | 528 kts | 100° |
| 2026-05-05 06:22 | 62.05882 | -34.60527 | 39246 ft | 528 kts | 100° |
| 2026-05-05 06:22 | 62.04303 | -34.45231 | 39238 ft | 528 kts | 100° |
| 2026-05-05 06:23 | 62.02706 | -34.29941 | 39241 ft | 530 kts | 100° |
| 2026-05-05 06:23 | 62.01084 | -34.14585 | 39240 ft | 531 kts | 100° |
| 2026-05-05 06:24 | 61.99454 | -33.99341 | 39235 ft | 531 kts | 100° |
| 2026-05-05 06:24 | 61.97797 | -33.84010 | 39236 ft | 531 kts | 101° |
| 2026-05-05 06:25 | 61.96124 | -33.68714 | 39233 ft | 531 kts | 101° |
| 2026-05-05 06:25 | 61.94432 | -33.53407 | 39233 ft | 531 kts | 101° |
| 2026-05-05 06:26 | 61.92736 | -33.38235 | 39233 ft | 531 kts | 101° |
| 2026-05-05 06:26 | 61.91010 | -33.22970 | 39233 ft | 533 kts | 101° |
| 2026-05-05 06:27 | 61.88379 | -33.00000 | 39230 ft | 534 kts | 101° |
| 2026-05-05 06:28 | 61.86606 | -32.84729 | 39231 ft | 534 kts | 101° |
| 2026-05-05 06:28 | 61.84814 | -32.69463 | 39230 ft | 534 kts | 101° |
| 2026-05-05 06:29 | 61.83006 | -32.54217 | 39230 ft | 534 kts | 102° |
| 2026-05-05 06:29 | 61.81191 | -32.39075 | 39230 ft | 534 kts | 102° |
| 2026-05-05 06:30 | 61.79348 | -32.23862 | 39234 ft | 534 kts | 102° |
| 2026-05-05 06:30 | 61.77486 | -32.08641 | 39232 ft | 535 kts | 102° |
| 2026-05-05 06:31 | 61.75606 | -31.93430 | 39234 ft | 535 kts | 102° |
| 2026-05-05 06:31 | 61.73707 | -31.78224 | 39233 ft | 535 kts | 102° |
| 2026-05-05 06:32 | 61.71794 | -31.63057 | 39240 ft | 535 kts | 102° |
| 2026-05-05 06:32 | 61.69864 | -31.47906 | 39241 ft | 535 kts | 102° |
| 2026-05-05 06:33 | 61.68246 | -31.35323 | 39231 ft | 535 kts | 102° |
| 2026-05-05 06:33 | 61.65966 | -31.17761 | 39247 ft | 535 kts | 103° |
| 2026-05-05 06:34 | 61.63984 | -31.02648 | 39241 ft | 536 kts | 103° |
| 2026-05-05 06:34 | 61.62322 | -30.90094 | 39240 ft | 536 kts | 103° |
| 2026-05-05 06:35 | 61.60307 | -30.75002 | 39257 ft | 536 kts | 103° |
| 2026-05-05 06:35 | 61.58277 | -30.59939 | 39250 ft | 536 kts | 103° |
| 2026-05-05 06:36 | 61.56229 | -30.44889 | 39260 ft | 536 kts | 103° |
| 2026-05-05 06:36 | 61.54168 | -30.29890 | 39260 ft | 535 kts | 103° |
| 2026-05-05 06:37 | 61.52092 | -30.14909 | 39255 ft | 535 kts | 103° |
| 2026-05-05 06:37 | 61.50019 | -30.00028 | 39396 ft | 535 kts | 103° |
| 2026-05-05 06:37 | 61.49078 | -29.92407 | 39593 ft | 533 kts | 101° |
| 2026-05-05 06:38 | 61.48244 | -29.84853 | 39794 ft | 532 kts | 99° |
| 2026-05-05 06:38 | 61.47460 | -29.77393 | 39971 ft | 531 kts | 99° |
| 2026-05-05 06:38 | 61.46674 | -29.69848 | 40130 ft | 530 kts | 99° |
| 2026-05-05 06:38 | 61.45878 | -29.62310 | 40291 ft | 530 kts | 99° |
| 2026-05-05 06:39 | 61.45067 | -29.54779 | 40436 ft | 530 kts | 100° |
| 2026-05-05 06:39 | 61.44242 | -29.47256 | 40573 ft | 530 kts | 100° |
| 2026-05-05 06:39 | 61.43407 | -29.39749 | 40715 ft | 530 kts | 100° |
| 2026-05-05 06:39 | 61.42568 | -29.32270 | 40880 ft | 530 kts | 101° |
| 2026-05-05 06:40 | 61.41720 | -29.24773 | 41036 ft | 529 kts | 101° |
| 2026-05-05 06:40 | 61.40023 | -29.09900 | 41233 ft | 530 kts | 101° |
| 2026-05-05 06:41 | 61.38299 | -28.94930 | 41271 ft | 531 kts | 101° |
| 2026-05-05 06:41 | 61.36559 | -28.79975 | 41277 ft | 530 kts | 101° |
| 2026-05-05 06:42 | 61.34802 | -28.65029 | 41276 ft | 530 kts | 101° |
| 2026-05-05 06:42 | 61.33030 | -28.50111 | 41274 ft | 530 kts | 101° |
| 2026-05-05 06:43 | 61.31243 | -28.35220 | 41307 ft | 529 kts | 101° |
| 2026-05-05 06:43 | 61.29442 | -28.20370 | 41278 ft | 529 kts | 101° |
| 2026-05-05 06:44 | 61.27628 | -28.05553 | 41280 ft | 529 kts | 102° |
| 2026-05-05 06:44 | 61.25795 | -27.90734 | 41288 ft | 529 kts | 102° |
| 2026-05-05 06:45 | 61.23959 | -27.76042 | 41284 ft | 529 kts | 102° |
| 2026-05-05 06:45 | 61.22092 | -27.61243 | 41286 ft | 529 kts | 102° |
| 2026-05-05 06:46 | 61.20212 | -27.46490 | 41286 ft | 528 kts | 102° |
| 2026-05-05 06:46 | 61.18318 | -27.31772 | 41293 ft | 527 kts | 102° |
| 2026-05-05 06:47 | 61.16411 | -27.17088 | 41290 ft | 528 kts | 102° |
| 2026-05-05 06:47 | 61.14486 | -27.02411 | 41292 ft | 528 kts | 103° |
| 2026-05-05 06:48 | 61.12560 | -26.87854 | 41295 ft | 528 kts | 103° |
| 2026-05-05 06:48 | 61.10604 | -26.73215 | 41297 ft | 528 kts | 103° |
| 2026-05-05 06:49 | 61.08633 | -26.58604 | 41295 ft | 527 kts | 103° |
| 2026-05-05 06:49 | 61.06649 | -26.44028 | 41302 ft | 526 kts | 103° |
| 2026-05-05 06:50 | 61.04653 | -26.29498 | 41303 ft | 526 kts | 103° |
| 2026-05-05 06:50 | 61.02641 | -26.14982 | 41303 ft | 526 kts | 103° |
| 2026-05-05 06:51 | 61.00625 | -26.00561 | 41304 ft | 526 kts | 104° |
| 2026-05-05 06:51 | 60.98582 | -25.86085 | 41306 ft | 526 kts | 104° |
| 2026-05-05 06:52 | 60.96522 | -25.71609 | 41295 ft | 526 kts | 104° |
| 2026-05-05 06:52 | 60.94449 | -25.57176 | 41324 ft | 525 kts | 104° |
| 2026-05-05 06:53 | 60.92360 | -25.42755 | 41304 ft | 525 kts | 104° |
| 2026-05-05 06:53 | 60.90258 | -25.28371 | 41304 ft | 526 kts | 104° |
| 2026-05-05 06:54 | 60.88153 | -25.14088 | 41315 ft | 526 kts | 105° |
| 2026-05-05 06:54 | 60.86019 | -24.99735 | 41312 ft | 526 kts | 105° |
| 2026-05-05 06:55 | 60.83866 | -24.85374 | 41309 ft | 526 kts | 105° |
| 2026-05-05 06:55 | 60.81701 | -24.71046 | 41314 ft | 525 kts | 105° |
| 2026-05-05 06:56 | 60.79538 | -24.56858 | 41314 ft | 525 kts | 105° |
| 2026-05-05 06:56 | 60.77342 | -24.42574 | 41307 ft | 525 kts | 105° |
| 2026-05-05 06:57 | 60.75134 | -24.28325 | 41321 ft | 525 kts | 106° |
| 2026-05-05 06:57 | 60.72923 | -24.14178 | 41313 ft | 525 kts | 106° |
| 2026-05-05 06:58 | 60.70685 | -23.99969 | 41323 ft | 525 kts | 106° |
| 2026-05-05 06:58 | 60.68429 | -23.85762 | 41320 ft | 525 kts | 106° |
| 2026-05-05 06:59 | 60.66161 | -23.71591 | 41321 ft | 525 kts | 107° |
| 2026-05-05 06:59 | 60.63878 | -23.57441 | 41318 ft | 525 kts | 107° |
| 2026-05-05 07:00 | 60.61593 | -23.43399 | 41323 ft | 525 kts | 107° |
| 2026-05-05 07:00 | 60.59279 | -23.29284 | 41329 ft | 525 kts | 107° |
| 2026-05-05 07:01 | 60.56952 | -23.15201 | 41326 ft | 525 kts | 107° |
| 2026-05-05 07:01 | 60.54608 | -23.01124 | 41324 ft | 525 kts | 107° |
| 2026-05-05 07:02 | 60.52254 | -22.87089 | 41335 ft | 525 kts | 108° |
| 2026-05-05 07:02 | 60.49883 | -22.73070 | 41326 ft | 525 kts | 108° |
| 2026-05-05 07:03 | 60.47500 | -22.59084 | 41327 ft | 525 kts | 108° |
| 2026-05-05 07:03 | 60.45114 | -22.45189 | 41327 ft | 525 kts | 108° |
| 2026-05-05 07:04 | 60.42701 | -22.31238 | 41328 ft | 525 kts | 108° |
| 2026-05-05 07:04 | 60.40271 | -22.17297 | 41327 ft | 525 kts | 108° |
| 2026-05-05 07:05 | 60.37827 | -22.03380 | 41347 ft | 524 kts | 108° |
| 2026-05-05 07:05 | 60.35372 | -21.89498 | 41329 ft | 524 kts | 109° |
| 2026-05-05 07:06 | 60.32901 | -21.75635 | 41328 ft | 525 kts | 109° |
| 2026-05-05 07:06 | 60.30415 | -21.61787 | 41325 ft | 525 kts | 109° |
| 2026-05-05 07:07 | 60.27930 | -21.48044 | 41324 ft | 525 kts | 109° |
| 2026-05-05 07:07 | 60.25414 | -21.34236 | 41321 ft | 525 kts | 109° |
| 2026-05-05 07:08 | 60.22887 | -21.20459 | 41326 ft | 525 kts | 109° |
| 2026-05-05 07:08 | 60.20344 | -21.06700 | 41323 ft | 524 kts | 109° |
| 2026-05-05 07:09 | 60.17794 | -20.92997 | 41320 ft | 523 kts | 109° |
| 2026-05-05 07:09 | 60.15228 | -20.79308 | 41318 ft | 523 kts | 110° |
| 2026-05-05 07:10 | 60.12653 | -20.65662 | 41318 ft | 523 kts | 110° |
| 2026-05-05 07:10 | 60.10075 | -20.52101 | 41318 ft | 523 kts | 110° |
| 2026-05-05 07:11 | 60.07466 | -20.38471 | 41320 ft | 523 kts | 110° |
| 2026-05-05 07:11 | 60.04845 | -20.24871 | 41322 ft | 523 kts | 110° |
| 2026-05-05 07:12 | 60.02210 | -20.11290 | 41320 ft | 524 kts | 110° |
| 2026-05-05 07:12 | 59.99573 | -19.97792 | 41315 ft | 524 kts | 110° |
| 2026-05-05 07:13 | 59.96908 | -19.84250 | 41317 ft | 524 kts | 111° |
| 2026-05-05 07:13 | 59.94227 | -19.70720 | 41319 ft | 524 kts | 111° |
| 2026-05-05 07:14 | 59.91531 | -19.57202 | 41314 ft | 524 kts | 111° |
| 2026-05-05 07:14 | 59.88823 | -19.43715 | 41309 ft | 524 kts | 111° |
| 2026-05-05 07:15 | 59.86104 | -19.30263 | 41308 ft | 523 kts | 111° |
| 2026-05-05 07:15 | 59.83374 | -19.16852 | 41306 ft | 523 kts | 111° |
| 2026-05-05 07:16 | 59.80650 | -19.03552 | 41303 ft | 523 kts | 111° |
| 2026-05-05 07:16 | 59.77894 | -18.90188 | 41309 ft | 523 kts | 111° |
| 2026-05-05 07:17 | 59.75123 | -18.76838 | 41304 ft | 523 kts | 112° |
| 2026-05-05 07:17 | 59.72340 | -18.63513 | 41314 ft | 523 kts | 112° |
| 2026-05-05 07:18 | 59.69541 | -18.50201 | 41301 ft | 523 kts | 112° |
| 2026-05-05 07:18 | 59.66736 | -18.36948 | 41298 ft | 522 kts | 112° |
| 2026-05-05 07:19 | 59.63917 | -18.23716 | 41294 ft | 522 kts | 112° |
| 2026-05-05 07:19 | 59.61087 | -18.10511 | 41292 ft | 522 kts | 112° |
| 2026-05-05 07:20 | 59.58255 | -17.97383 | 41287 ft | 522 kts | 112° |
| 2026-05-05 07:20 | 59.55394 | -17.84207 | 41287 ft | 522 kts | 112° |
| 2026-05-05 07:21 | 59.52523 | -17.71063 | 41282 ft | 522 kts | 113° |
| 2026-05-05 07:21 | 59.49641 | -17.57957 | 41279 ft | 521 kts | 113° |
| 2026-05-05 07:22 | 59.46745 | -17.44866 | 41273 ft | 521 kts | 113° |
| 2026-05-05 07:22 | 59.43837 | -17.31802 | 41271 ft | 521 kts | 113° |
| 2026-05-05 07:23 | 59.40920 | -17.18777 | 41270 ft | 521 kts | 113° |
| 2026-05-05 07:23 | 59.38482 | -17.07955 | 41268 ft | 521 kts | 114° |
| 2026-05-05 07:24 | 59.35060 | -16.92857 | 41258 ft | 521 kts | 114° |
| 2026-05-05 07:24 | 59.32104 | -16.79901 | 41265 ft | 520 kts | 114° |
| 2026-05-05 07:25 | 59.29624 | -16.69088 | 41258 ft | 520 kts | 114° |
| 2026-05-05 07:25 | 59.26668 | -16.56273 | 41260 ft | 520 kts | 114° |
| 2026-05-05 07:26 | 59.23663 | -16.43326 | 41257 ft | 520 kts | 114° |
| 2026-05-05 07:26 | 59.20680 | -16.30552 | 41257 ft | 520 kts | 114° |
| 2026-05-05 07:27 | 59.17667 | -16.17719 | 41260 ft | 520 kts | 114° |
| 2026-05-05 07:27 | 59.14643 | -16.04922 | 41248 ft | 520 kts | 115° |
| 2026-05-05 07:28 | 59.11605 | -15.92140 | 41248 ft | 519 kts | 115° |
| 2026-05-05 07:28 | 59.08560 | -15.79405 | 41246 ft | 519 kts | 115° |
| 2026-05-05 07:29 | 59.05520 | -15.66764 | 41243 ft | 519 kts | 115° |
| 2026-05-05 07:29 | 59.02453 | -15.54083 | 41243 ft | 519 kts | 115° |
| 2026-05-05 07:30 | 58.99371 | -15.41414 | 41251 ft | 519 kts | 115° |
| 2026-05-05 07:30 | 58.94725 | -15.22456 | 41244 ft | 519 kts | 115° |
| 2026-05-05 07:31 | 58.91615 | -15.09855 | 41233 ft | 518 kts | 115° |
| 2026-05-05 07:31 | 58.88491 | -14.97269 | 41233 ft | 518 kts | 115° |
| 2026-05-05 07:32 | 58.85356 | -14.84713 | 41230 ft | 518 kts | 116° |
| 2026-05-05 07:32 | 58.82211 | -14.72188 | 41230 ft | 518 kts | 116° |
| 2026-05-05 07:33 | 58.79075 | -14.59769 | 41234 ft | 518 kts | 116° |
| 2026-05-05 07:33 | 58.75901 | -14.47269 | 41226 ft | 518 kts | 116° |
| 2026-05-05 07:34 | 58.72719 | -14.34809 | 41227 ft | 518 kts | 116° |
| 2026-05-05 07:34 | 58.69528 | -14.22383 | 41224 ft | 518 kts | 116° |
| 2026-05-05 07:35 | 58.66324 | -14.09975 | 41227 ft | 518 kts | 116° |
| 2026-05-05 07:35 | 58.63128 | -13.97668 | 41227 ft | 518 kts | 116° |
| 2026-05-05 07:36 | 58.59881 | -13.85231 | 41227 ft | 518 kts | 117° |
| 2026-05-05 07:36 | 58.56667 | -13.72990 | 41221 ft | 518 kts | 117° |
| 2026-05-05 07:37 | 58.53419 | -13.60685 | 41219 ft | 517 kts | 117° |
| 2026-05-05 07:37 | 58.50160 | -13.48408 | 41219 ft | 517 kts | 117° |
| 2026-05-05 07:38 | 58.46890 | -13.36154 | 41222 ft | 517 kts | 117° |
| 2026-05-05 07:38 | 58.43610 | -13.23933 | 41217 ft | 517 kts | 117° |
| 2026-05-05 07:39 | 58.40316 | -13.11721 | 41216 ft | 517 kts | 117° |
| 2026-05-05 07:39 | 58.37015 | -12.99551 | 41209 ft | 517 kts | 117° |
| 2026-05-05 07:40 | 58.33700 | -12.87395 | 41215 ft | 516 kts | 117° |
| 2026-05-05 07:40 | 58.30400 | -12.75356 | 41215 ft | 516 kts | 117° |
| 2026-05-05 07:41 | 58.27069 | -12.63271 | 41220 ft | 516 kts | 118° |
| 2026-05-05 07:41 | 58.23720 | -12.51185 | 41218 ft | 516 kts | 118° |
| 2026-05-05 07:42 | 58.20363 | -12.39134 | 41217 ft | 516 kts | 118° |
| 2026-05-05 07:42 | 58.17015 | -12.27176 | 41213 ft | 517 kts | 118° |
| 2026-05-05 07:43 | 58.13633 | -12.15160 | 41214 ft | 517 kts | 118° |
| 2026-05-05 07:43 | 58.10237 | -12.03158 | 41206 ft | 517 kts | 118° |
| 2026-05-05 07:44 | 58.06833 | -11.91190 | 41208 ft | 517 kts | 118° |
| 2026-05-05 07:44 | 58.03417 | -11.79244 | 41205 ft | 517 kts | 118° |
| 2026-05-05 07:45 | 57.99986 | -11.67305 | 41213 ft | 517 kts | 118° |
| 2026-05-05 07:45 | 57.96570 | -11.55479 | 41205 ft | 517 kts | 119° |
| 2026-05-05 07:46 | 57.93123 | -11.43608 | 41199 ft | 516 kts | 119° |
| 2026-05-05 07:46 | 57.89666 | -11.31763 | 41200 ft | 516 kts | 119° |
| 2026-05-05 07:47 | 57.86200 | -11.19947 | 41197 ft | 516 kts | 119° |
| 2026-05-05 07:47 | 57.82723 | -11.08156 | 41197 ft | 516 kts | 119° |
| 2026-05-05 07:48 | 57.79259 | -10.96466 | 41203 ft | 516 kts | 119° |
| 2026-05-05 07:48 | 57.75758 | -10.84709 | 41195 ft | 516 kts | 120° |
| 2026-05-05 07:49 | 57.72246 | -10.72978 | 41192 ft | 516 kts | 120° |
| 2026-05-05 07:49 | 57.68728 | -10.61284 | 41187 ft | 515 kts | 120° |
| 2026-05-05 07:50 | 57.65225 | -10.49699 | 41187 ft | 515 kts | 120° |
| 2026-05-05 07:50 | 57.61683 | -10.38041 | 41186 ft | 515 kts | 120° |
| 2026-05-05 07:51 | 57.58136 | -10.26426 | 41186 ft | 515 kts | 120° |
| 2026-05-05 07:51 | 57.54584 | -10.14849 | 41181 ft | 515 kts | 120° |
| 2026-05-05 07:52 | 57.51033 | -10.03239 | 41168 ft | 516 kts | 118° |
| 2026-05-05 07:52 | 57.48342 | -9.90981 | 41173 ft | 516 kts | 109° |
| 2026-05-05 07:53 | 57.46010 | -9.78361 | 41173 ft | 516 kts | 108° |
| 2026-05-05 07:53 | 57.43733 | -9.65727 | 41167 ft | 516 kts | 108° |
| 2026-05-05 07:54 | 57.41385 | -9.53121 | 41163 ft | 516 kts | 112° |
| 2026-05-05 07:54 | 57.38079 | -9.41334 | 41165 ft | 515 kts | 121° |
| 2026-05-05 07:55 | 57.34394 | -9.29927 | 41157 ft | 515 kts | 122° |
| 2026-05-05 07:55 | 57.30666 | -9.18684 | 41147 ft | 515 kts | 122° |
| 2026-05-05 07:56 | 57.26924 | -9.07399 | 41152 ft | 515 kts | 122° |
| 2026-05-05 07:56 | 57.23184 | -8.96111 | 41148 ft | 515 kts | 122° |
| 2026-05-05 07:57 | 57.19440 | -8.84839 | 41151 ft | 515 kts | 122° |
| 2026-05-05 07:57 | 57.15685 | -8.73590 | 41143 ft | 515 kts | 122° |
| 2026-05-05 07:58 | 57.11916 | -8.62354 | 41143 ft | 515 kts | 122° |
| 2026-05-05 07:58 | 57.08141 | -8.51152 | 41132 ft | 515 kts | 122° |
| 2026-05-05 07:59 | 57.04387 | -8.40064 | 41136 ft | 514 kts | 122° |
| 2026-05-05 07:59 | 57.00605 | -8.28949 | 41136 ft | 513 kts | 123° |
| 2026-05-05 08:00 | 56.96810 | -8.17845 | 41132 ft | 514 kts | 123° |
| 2026-05-05 08:00 | 56.92992 | -8.06725 | 41132 ft | 514 kts | 123° |
| 2026-05-05 08:01 | 56.89173 | -7.95654 | 41124 ft | 514 kts | 123° |
| 2026-05-05 08:01 | 56.85346 | -7.84610 | 41111 ft | 514 kts | 123° |
| 2026-05-05 08:02 | 56.81538 | -7.73672 | 41116 ft | 513 kts | 123° |
| 2026-05-05 08:02 | 56.77700 | -7.62696 | 41114 ft | 513 kts | 123° |
| 2026-05-05 08:03 | 56.73852 | -7.51744 | 41117 ft | 513 kts | 123° |
| 2026-05-05 08:03 | 56.69994 | -7.40810 | 41113 ft | 513 kts | 123° |
| 2026-05-05 08:04 | 56.66124 | -7.29893 | 41109 ft | 513 kts | 123° |
| 2026-05-05 08:04 | 56.62242 | -7.18992 | 41092 ft | 513 kts | 124° |
| 2026-05-05 08:05 | 56.58386 | -7.08212 | 41103 ft | 511 kts | 124° |
| 2026-05-05 08:05 | 56.54504 | -6.97409 | 41103 ft | 511 kts | 124° |
| 2026-05-05 08:06 | 56.50607 | -6.86612 | 41104 ft | 511 kts | 124° |
| 2026-05-05 08:06 | 56.46704 | -6.75844 | 41101 ft | 511 kts | 124° |
| 2026-05-05 08:07 | 56.42788 | -6.65090 | 41101 ft | 511 kts | 124° |
| 2026-05-05 08:07 | 56.38869 | -6.54377 | 41081 ft | 511 kts | 124° |
| 2026-05-05 08:08 | 56.34944 | -6.43693 | 41089 ft | 510 kts | 124° |
| 2026-05-05 08:08 | 56.31036 | -6.33100 | 41094 ft | 510 kts | 124° |
| 2026-05-05 08:09 | 56.27095 | -6.22466 | 41092 ft | 510 kts | 124° |
| 2026-05-05 08:09 | 56.23140 | -6.11841 | 41087 ft | 510 kts | 124° |
| 2026-05-05 08:10 | 56.19181 | -6.01253 | 41086 ft | 510 kts | 125° |
| 2026-05-05 08:10 | 56.15217 | -5.90695 | 41073 ft | 510 kts | 125° |
| 2026-05-05 08:11 | 56.11270 | -5.80227 | 41080 ft | 509 kts | 125° |
| 2026-05-05 08:11 | 56.07292 | -5.69724 | 41088 ft | 509 kts | 125° |
| 2026-05-05 08:12 | 56.03303 | -5.59237 | 41077 ft | 510 kts | 125° |
| 2026-05-05 08:12 | 55.99302 | -5.48761 | 41077 ft | 510 kts | 125° |
| 2026-05-05 08:13 | 55.95966 | -5.40063 | 41067 ft | 510 kts | 125° |
| 2026-05-05 08:13 | 55.91952 | -5.29637 | 41067 ft | 510 kts | 126° |
| 2026-05-05 08:14 | 55.87929 | -5.19234 | 41062 ft | 510 kts | 126° |
| 2026-05-05 08:14 | 55.83894 | -5.08842 | 41064 ft | 510 kts | 126° |
| 2026-05-05 08:15 | 55.79853 | -4.98478 | 41061 ft | 510 kts | 126° |
| 2026-05-05 08:15 | 55.75801 | -4.88131 | 41055 ft | 510 kts | 126° |
| 2026-05-05 08:16 | 55.71761 | -4.77858 | 41053 ft | 510 kts | 126° |
| 2026-05-05 08:16 | 55.67686 | -4.67538 | 41061 ft | 510 kts | 126° |
| 2026-05-05 08:17 | 55.63615 | -4.57272 | 41043 ft | 508 kts | 126° |
| 2026-05-05 08:17 | 55.59543 | -4.47047 | 41042 ft | 508 kts | 126° |
| 2026-05-05 08:18 | 55.55457 | -4.36827 | 41046 ft | 508 kts | 126° |
| 2026-05-05 08:18 | 55.51398 | -4.26718 | 41049 ft | 508 kts | 126° |
| 2026-05-05 08:19 | 55.47295 | -4.16544 | 41041 ft | 508 kts | 127° |
| 2026-05-05 08:19 | 55.43188 | -4.06399 | 41042 ft | 508 kts | 127° |
| 2026-05-05 08:20 | 55.39086 | -3.96310 | 41038 ft | 507 kts | 127° |
| 2026-05-05 08:20 | 55.34977 | -3.86243 | 41040 ft | 506 kts | 127° |
| 2026-05-05 08:21 | 55.30860 | -3.76198 | 41038 ft | 506 kts | 127° |
| 2026-05-05 08:21 | 55.26736 | -3.66179 | 41029 ft | 506 kts | 127° |
| 2026-05-05 08:22 | 55.22621 | -3.56222 | 41030 ft | 506 kts | 127° |
| 2026-05-05 08:22 | 55.18482 | -3.46245 | 41025 ft | 506 kts | 127° |
| 2026-05-05 08:23 | 55.14339 | -3.36299 | 41030 ft | 505 kts | 127° |
| 2026-05-05 08:23 | 55.10194 | -3.26388 | 41035 ft | 505 kts | 127° |
| 2026-05-05 08:24 | 55.06032 | -3.16478 | 41031 ft | 505 kts | 128° |
| 2026-05-05 08:24 | 55.01892 | -3.06659 | 41035 ft | 506 kts | 128° |
| 2026-05-05 08:25 | 54.97720 | -2.96803 | 41036 ft | 506 kts | 128° |
| 2026-05-05 08:25 | 54.93542 | -2.86972 | 41035 ft | 505 kts | 128° |
| 2026-05-05 08:26 | 54.89358 | -2.77165 | 41012 ft | 504 kts | 128° |
| 2026-05-05 08:26 | 54.85170 | -2.67388 | 41016 ft | 504 kts | 128° |
| 2026-05-05 08:27 | 54.80972 | -2.57626 | 41037 ft | 504 kts | 128° |
| 2026-05-05 08:27 | 54.76792 | -2.47945 | 41036 ft | 505 kts | 128° |
| 2026-05-05 08:28 | 54.72580 | -2.38228 | 41023 ft | 504 kts | 128° |
| 2026-05-05 08:28 | 54.68361 | -2.28533 | 41034 ft | 504 kts | 128° |
| 2026-05-05 08:29 | 54.64135 | -2.18858 | 41035 ft | 503 kts | 128° |
| 2026-05-05 08:30 | 54.57818 | -2.04469 | 41030 ft | 503 kts | 129° |
| 2026-05-05 08:30 | 54.53578 | -1.94857 | 41031 ft | 504 kts | 129° |
| 2026-05-05 08:31 | 54.49327 | -1.85258 | 41023 ft | 504 kts | 129° |
| 2026-05-05 08:31 | 54.45075 | -1.75694 | 41019 ft | 503 kts | 129° |
| 2026-05-05 08:32 | 54.40817 | -1.66151 | 41021 ft | 503 kts | 129° |
| 2026-05-05 08:32 | 54.36551 | -1.56627 | 41017 ft | 503 kts | 129° |
| 2026-05-05 08:33 | 54.32281 | -1.47131 | 41015 ft | 502 kts | 129° |
| 2026-05-05 08:33 | 54.28013 | -1.37678 | 41019 ft | 502 kts | 129° |
| 2026-05-05 08:34 | 54.23759 | -1.28290 | 41007 ft | 502 kts | 129° |
| 2026-05-05 08:34 | 54.19484 | -1.18892 | 41018 ft | 500 kts | 129° |
| 2026-05-05 08:35 | 54.15213 | -1.09536 | 41021 ft | 500 kts | 129° |
| 2026-05-05 08:35 | 54.10933 | -1.00196 | 41022 ft | 500 kts | 129° |
| 2026-05-05 08:36 | 54.06644 | -0.90873 | 41015 ft | 500 kts | 129° |
| 2026-05-05 08:36 | 54.01973 | -0.82160 | 41017 ft | 497 kts | 142° |
| 2026-05-05 08:37 | 53.96450 | -0.75133 | 41012 ft | 495 kts | 147° |
| 2026-05-05 08:37 | 53.90776 | -0.68522 | 41019 ft | 495 kts | 147° |
| 2026-05-05 08:38 | 53.85114 | -0.62012 | 41018 ft | 495 kts | 147° |
| 2026-05-05 08:38 | 53.79428 | -0.55441 | 41013 ft | 495 kts | 147° |
| 2026-05-05 08:39 | 53.73744 | -0.48858 | 41009 ft | 494 kts | 147° |
| 2026-05-05 08:39 | 53.68078 | -0.42308 | 41014 ft | 493 kts | 147° |
| 2026-05-05 08:40 | 53.62418 | -0.35787 | 41017 ft | 493 kts | 147° |
| 2026-05-05 08:40 | 53.57103 | -0.28501 | 41014 ft | 495 kts | 134° |
| 2026-05-05 08:41 | 53.52748 | -0.19580 | 41029 ft | 497 kts | 129° |
| 2026-05-05 08:41 | 53.48599 | -0.10296 | 41007 ft | 497 kts | 128° |
| 2026-05-05 08:42 | 53.44468 | -0.00994 | 41005 ft | 497 kts | 128° |
| 2026-05-05 08:42 | 53.40304 | 0.08264 | 41004 ft | 496 kts | 129° |
| 2026-05-05 08:43 | 53.36121 | 0.17471 | 41005 ft | 496 kts | 129° |
| 2026-05-05 08:43 | 53.31931 | 0.26649 | 40985 ft | 496 kts | 129° |
| 2026-05-05 08:44 | 53.27732 | 0.35812 | 40984 ft | 496 kts | 129° |
| 2026-05-05 08:44 | 53.23557 | 0.44894 | 41000 ft | 496 kts | 129° |
| 2026-05-05 08:45 | 53.19352 | 0.54011 | 40999 ft | 495 kts | 129° |
| 2026-05-05 08:45 | 53.15142 | 0.63103 | 41001 ft | 495 kts | 129° |
| 2026-05-05 08:46 | 53.10930 | 0.72167 | 41000 ft | 495 kts | 129° |
| 2026-05-05 08:46 | 53.06707 | 0.81223 | 41001 ft | 495 kts | 129° |
| 2026-05-05 08:47 | 53.02507 | 0.90198 | 41001 ft | 495 kts | 129° |
| 2026-05-05 08:47 | 52.98456 | 0.99445 | 41000 ft | 496 kts | 122° |
| 2026-05-05 08:48 | 52.95587 | 1.09894 | 41007 ft | 498 kts | 113° |
| 2026-05-05 08:48 | 52.93135 | 1.20649 | 41006 ft | 499 kts | 111° |
| 2026-05-05 08:49 | 52.90736 | 1.31445 | 41007 ft | 499 kts | 111° |
| 2026-05-05 08:49 | 52.88306 | 1.42209 | 41007 ft | 499 kts | 112° |
| 2026-05-05 08:50 | 52.85860 | 1.52886 | 41005 ft | 499 kts | 112° |
| 2026-05-05 08:50 | 52.83379 | 1.63624 | 41007 ft | 500 kts | 112° |
| 2026-05-05 08:51 | 52.80886 | 1.74362 | 41006 ft | 500 kts | 112° |
| 2026-05-05 08:51 | 52.78382 | 1.85099 | 41004 ft | 500 kts | 112° |
| 2026-05-05 08:52 | 52.75874 | 1.95800 | 41004 ft | 500 kts | 112° |
| 2026-05-05 08:52 | 52.73354 | 2.06500 | 41000 ft | 500 kts | 112° |
| 2026-05-05 08:53 | 52.70841 | 2.17117 | 41001 ft | 500 kts | 113° |
| 2026-05-05 08:53 | 52.68304 | 2.27783 | 40999 ft | 500 kts | 113° |
| 2026-05-05 08:54 | 52.65757 | 2.38436 | 40999 ft | 500 kts | 113° |
| 2026-05-05 08:54 | 52.63199 | 2.49088 | 40996 ft | 500 kts | 113° |
| 2026-05-05 08:55 | 52.60627 | 2.59739 | 40996 ft | 500 kts | 113° |
| 2026-05-05 08:55 | 52.58064 | 2.70306 | 40990 ft | 500 kts | 113° |
| 2026-05-05 08:56 | 52.55474 | 2.80931 | 40990 ft | 500 kts | 113° |
| 2026-05-05 08:56 | 52.52702 | 2.91398 | 40988 ft | 500 kts | 117° |
| 2026-05-05 08:57 | 52.49683 | 3.01669 | 40982 ft | 499 kts | 118° |
| 2026-05-05 08:57 | 52.46633 | 3.11924 | 40987 ft | 499 kts | 117° |
| 2026-05-05 08:58 | 52.43606 | 3.22178 | 40983 ft | 499 kts | 117° |
| 2026-05-05 08:58 | 52.40591 | 3.32419 | 40983 ft | 499 kts | 117° |
| 2026-05-05 08:59 | 52.37591 | 3.42582 | 40976 ft | 499 kts | 117° |
| 2026-05-05 08:59 | 52.34564 | 3.52792 | 40973 ft | 499 kts | 118° |
| 2026-05-05 09:00 | 52.31522 | 3.63001 | 40967 ft | 500 kts | 118° |
| 2026-05-05 09:00 | 52.28468 | 3.73207 | 40971 ft | 500 kts | 118° |
| 2026-05-05 09:01 | 52.25404 | 3.83401 | 40967 ft | 500 kts | 118° |
| 2026-05-05 09:01 | 52.22335 | 3.93570 | 40966 ft | 500 kts | 118° |
| 2026-05-05 09:02 | 52.19255 | 4.03734 | 40957 ft | 501 kts | 118° |
| 2026-05-05 09:02 | 52.16682 | 4.12192 | 40958 ft | 501 kts | 118° |
| 2026-05-05 09:03 | 52.13579 | 4.22351 | 40952 ft | 501 kts | 118° |
| 2026-05-05 09:03 | 52.10468 | 4.32495 | 40933 ft | 501 kts | 118° |
| 2026-05-05 09:04 | 52.07349 | 4.42622 | 40931 ft | 501 kts | 118° |
| 2026-05-05 09:04 | 52.04220 | 4.52739 | 40936 ft | 501 kts | 118° |
| 2026-05-05 09:05 | 52.01082 | 4.62842 | 40940 ft | 501 kts | 118° |
| 2026-05-05 09:05 | 51.97937 | 4.72927 | 40933 ft | 501 kts | 118° |
| 2026-05-05 09:06 | 51.94785 | 4.82994 | 40933 ft | 501 kts | 119° |
| 2026-05-05 09:06 | 51.91665 | 4.92920 | 40940 ft | 500 kts | 119° |
| 2026-05-05 09:07 | 51.88524 | 5.02869 | 40938 ft | 500 kts | 119° |
| 2026-05-05 09:07 | 51.85327 | 5.12951 | 40934 ft | 500 kts | 120° |
| 2026-05-05 09:08 | 51.82147 | 5.22940 | 40933 ft | 500 kts | 120° |
| 2026-05-05 09:08 | 51.78959 | 5.32914 | 40933 ft | 500 kts | 120° |
| 2026-05-05 09:09 | 51.75760 | 5.42882 | 40934 ft | 500 kts | 120° |
| 2026-05-05 09:09 | 51.73412 | 5.50175 | 40932 ft | 500 kts | 120° |
| 2026-05-05 09:10 | 51.70197 | 5.60124 | 40931 ft | 500 kts | 120° |
| 2026-05-05 09:10 | 51.66994 | 5.69994 | 40927 ft | 500 kts | 120° |
| 2026-05-05 09:11 | 51.63771 | 5.79889 | 40940 ft | 499 kts | 120° |
| 2026-05-05 09:11 | 51.60538 | 5.89775 | 40935 ft | 499 kts | 120° |
| 2026-05-05 09:12 | 51.57302 | 5.99628 | 40910 ft | 498 kts | 120° |
| 2026-05-05 09:12 | 51.54057 | 6.09471 | 40911 ft | 498 kts | 120° |
| 2026-05-05 09:13 | 51.50816 | 6.19314 | 40909 ft | 499 kts | 118° |
| 2026-05-05 09:13 | 51.48122 | 6.29599 | 40906 ft | 501 kts | 114° |
| 2026-05-05 09:14 | 51.45555 | 6.40000 | 40903 ft | 501 kts | 114° |
| 2026-05-05 09:14 | 51.42991 | 6.50389 | 40807 ft | 501 kts | 114° |
| 2026-05-05 09:14 | 51.41709 | 6.55571 | 40562 ft | 500 kts | 114° |
| 2026-05-05 09:15 | 51.40427 | 6.60742 | 40140 ft | 499 kts | 114° |
| 2026-05-05 09:15 | 51.39142 | 6.65912 | 39382 ft | 500 kts | 114° |
| 2026-05-05 09:15 | 51.37864 | 6.71042 | 38514 ft | 493 kts | 115° |
| 2026-05-05 09:15 | 51.36605 | 6.76095 | 37691 ft | 483 kts | 115° |
| 2026-05-05 09:16 | 51.35375 | 6.81020 | 37003 ft | 471 kts | 116° |
| 2026-05-05 09:16 | 51.34166 | 6.85841 | 36318 ft | 469 kts | 116° |
| 2026-05-05 09:16 | 51.32942 | 6.90698 | 35622 ft | 472 kts | 116° |
| 2026-05-05 09:16 | 51.31711 | 6.95579 | 34886 ft | 474 kts | 117° |
| 2026-05-05 09:17 | 51.30480 | 7.00454 | 34092 ft | 474 kts | 117° |
| 2026-05-05 09:17 | 51.29201 | 7.05351 | 33169 ft | 478 kts | 120° |
| 2026-05-05 09:17 | 51.27606 | 7.09973 | 32325 ft | 473 kts | 129° |
| 2026-05-05 09:17 | 51.25569 | 7.14065 | 31469 ft | 469 kts | 138° |
| 2026-05-05 09:18 | 51.23173 | 7.17450 | 30582 ft | 466 kts | 147° |
| 2026-05-05 09:18 | 51.20432 | 7.20166 | 29637 ft | 465 kts | 155° |
| 2026-05-05 09:18 | 51.17532 | 7.22495 | 28636 ft | 466 kts | 157° |
| 2026-05-05 09:18 | 51.14637 | 7.24749 | 27992 ft | 461 kts | 157° |
| 2026-05-05 09:19 | 51.11772 | 7.26995 | 27371 ft | 456 kts | 156° |
| 2026-05-05 09:19 | 51.08961 | 7.29275 | 26743 ft | 452 kts | 155° |
| 2026-05-05 09:19 | 51.06180 | 7.31558 | 26115 ft | 448 kts | 155° |
| 2026-05-05 09:19 | 51.03427 | 7.33825 | 25486 ft | 445 kts | 154° |
| 2026-05-05 09:20 | 51.00656 | 7.36105 | 24884 ft | 451 kts | 154° |
| 2026-05-05 09:20 | 50.97881 | 7.38388 | 24179 ft | 449 kts | 154° |
| 2026-05-05 09:20 | 50.95115 | 7.40662 | 23526 ft | 445 kts | 154° |
| 2026-05-05 09:20 | 50.92378 | 7.42909 | 22835 ft | 441 kts | 154° |
| 2026-05-05 09:21 | 50.89671 | 7.45129 | 22200 ft | 435 kts | 154° |
| 2026-05-05 09:21 | 50.86998 | 7.47318 | 21582 ft | 430 kts | 154° |
| 2026-05-05 09:21 | 50.84354 | 7.49479 | 20973 ft | 425 kts | 154° |
| 2026-05-05 09:21 | 50.81739 | 7.51614 | 20355 ft | 421 kts | 154° |
| 2026-05-05 09:22 | 50.79144 | 7.53731 | 19733 ft | 418 kts | 154° |
| 2026-05-05 09:22 | 50.76572 | 7.55825 | 19121 ft | 415 kts | 154° |
| 2026-05-05 09:22 | 50.74015 | 7.57905 | 18492 ft | 412 kts | 154° |
| 2026-05-05 09:22 | 50.71466 | 7.59974 | 17839 ft | 411 kts | 154° |
| 2026-05-05 09:23 | 50.68942 | 7.62022 | 17173 ft | 408 kts | 154° |
| 2026-05-05 09:23 | 50.66430 | 7.64057 | 16540 ft | 404 kts | 154° |
| 2026-05-05 09:23 | 50.63938 | 7.66075 | 15928 ft | 400 kts | 154° |
| 2026-05-05 09:23 | 50.61470 | 7.68070 | 15259 ft | 397 kts | 155° |
| 2026-05-05 09:24 | 50.59023 | 7.70046 | 14687 ft | 392 kts | 155° |
| 2026-05-05 09:24 | 50.56608 | 7.71993 | 14329 ft | 391 kts | 155° |
| 2026-05-05 09:24 | 50.54180 | 7.73947 | 13989 ft | 392 kts | 155° |
| 2026-05-05 09:24 | 50.51754 | 7.75896 | 13657 ft | 390 kts | 155° |
| 2026-05-05 09:25 | 50.49404 | 7.77787 | 13423 ft | 363 kts | 155° |
| 2026-05-05 09:25 | 50.47255 | 7.79519 | 13197 ft | 333 kts | 155° |
| 2026-05-05 09:25 | 50.45273 | 7.81112 | 12974 ft | 307 kts | 155° |
| 2026-05-05 09:25 | 50.43437 | 7.82567 | 12700 ft | 286 kts | 155° |
| 2026-05-05 09:26 | 50.41870 | 7.84322 | 12452 ft | 271 kts | 135° |
| 2026-05-05 09:26 | 50.40952 | 7.86927 | 12343 ft | 280 kts | 107° |
| 2026-05-05 09:26 | 50.40908 | 7.89988 | 12205 ft | 286 kts | 79° |
| 2026-05-05 09:26 | 50.41766 | 7.92786 | 12075 ft | 289 kts | 51° |
| 2026-05-05 09:27 | 50.43374 | 7.94636 | 11943 ft | 289 kts | 21° |
| 2026-05-05 09:27 | 50.45309 | 7.95089 | 11822 ft | 286 kts | 352° |
| 2026-05-05 09:27 | 50.47239 | 7.94276 | 11707 ft | 284 kts | 337° |
| 2026-05-05 09:27 | 50.49053 | 7.93153 | 11603 ft | 284 kts | 336° |
| 2026-05-05 09:28 | 50.50888 | 7.92026 | 11483 ft | 282 kts | 336° |
| 2026-05-05 09:28 | 50.52706 | 7.90867 | 11363 ft | 282 kts | 335° |
| 2026-05-05 09:28 | 50.54471 | 7.89569 | 11234 ft | 279 kts | 326° |
| 2026-05-05 09:28 | 50.55843 | 7.87499 | 11109 ft | 272 kts | 300° |
| 2026-05-05 09:29 | 50.56471 | 7.84760 | 10986 ft | 266 kts | 274° |
| 2026-05-05 09:29 | 50.56464 | 7.81819 | 10982 ft | 284 kts | 263° |
| 2026-05-05 09:29 | 50.55947 | 7.78631 | 10952 ft | 320 kts | 243° |
| 2026-05-05 09:29 | 50.54489 | 7.75784 | 10903 ft | 353 kts | 218° |
| 2026-05-05 09:30 | 50.52272 | 7.73978 | 10832 ft | 367 kts | 196° |
| 2026-05-05 09:30 | 50.49736 | 7.73604 | 10645 ft | 370 kts | 175° |
| 2026-05-05 09:30 | 50.47272 | 7.74752 | 10410 ft | 372 kts | 154° |
| 2026-05-05 09:30 | 50.45239 | 7.77250 | 10183 ft | 374 kts | 135° |
| 2026-05-05 09:31 | 50.43435 | 7.80178 | 9947 ft | 372 kts | 136° |
| 2026-05-05 09:31 | 50.41730 | 7.83131 | 9871 ft | 350 kts | 134° |
| 2026-05-05 09:31 | 50.40151 | 7.85736 | 9885 ft | 310 kts | 137° |
| 2026-05-05 09:31 | 50.38666 | 7.87977 | 9899 ft | 289 kts | 139° |
| 2026-05-05 09:32 | 50.37181 | 7.90062 | 9874 ft | 285 kts | 141° |
| 2026-05-05 09:32 | 50.35670 | 7.92072 | 9871 ft | 285 kts | 142° |
| 2026-05-05 09:32 | 50.34141 | 7.94040 | 9868 ft | 285 kts | 143° |
| 2026-05-05 09:32 | 50.32602 | 7.95985 | 9863 ft | 285 kts | 143° |
| 2026-05-05 09:33 | 50.31056 | 7.97919 | 9864 ft | 285 kts | 143° |
| 2026-05-05 09:33 | 50.29498 | 7.99855 | 9868 ft | 285 kts | 143° |
| 2026-05-05 09:33 | 50.27942 | 8.01783 | 9866 ft | 285 kts | 143° |
| 2026-05-05 09:33 | 50.26460 | 8.03771 | 9863 ft | 285 kts | 137° |
| 2026-05-05 09:34 | 50.25155 | 8.06130 | 9870 ft | 289 kts | 130° |
| 2026-05-05 09:34 | 50.23933 | 8.08607 | 9869 ft | 288 kts | 129° |
| 2026-05-05 09:34 | 50.22721 | 8.11093 | 9870 ft | 288 kts | 129° |
| 2026-05-05 09:34 | 50.21507 | 8.13576 | 9874 ft | 287 kts | 129° |
| 2026-05-05 09:35 | 50.20291 | 8.16053 | 9873 ft | 287 kts | 129° |
| 2026-05-05 09:35 | 50.17853 | 8.20992 | 9875 ft | 287 kts | 130° |
| 2026-05-05 09:35 | 50.16633 | 8.23458 | 9876 ft | 287 kts | 129° |
| 2026-05-05 09:36 | 50.15413 | 8.25924 | 9879 ft | 287 kts | 129° |
| 2026-05-05 09:36 | 50.14190 | 8.28390 | 9877 ft | 287 kts | 129° |
| 2026-05-05 09:36 | 50.12967 | 8.30855 | 9878 ft | 287 kts | 129° |
| 2026-05-05 09:36 | 50.11745 | 8.33319 | 9876 ft | 287 kts | 129° |
| 2026-05-05 09:37 | 50.10680 | 8.35936 | 9879 ft | 289 kts | 115° |
| 2026-05-05 09:37 | 50.10280 | 8.38998 | 9881 ft | 292 kts | 90° |
| 2026-05-05 09:37 | 50.10696 | 8.42086 | 9881 ft | 294 kts | 73° |
| 2026-05-05 09:37 | 50.11410 | 8.45078 | 9858 ft | 294 kts | 70° |
| 2026-05-05 09:38 | 50.12154 | 8.48051 | 9858 ft | 295 kts | 70° |
| 2026-05-05 09:38 | 50.12889 | 8.51033 | 9862 ft | 296 kts | 70° |
| 2026-05-05 09:38 | 50.13620 | 8.54034 | 9855 ft | 295 kts | 70° |
| 2026-05-05 09:38 | 50.14342 | 8.57026 | 9854 ft | 295 kts | 71° |
| 2026-05-05 09:39 | 50.15062 | 8.60030 | 9856 ft | 295 kts | 71° |
| 2026-05-05 09:39 | 50.15778 | 8.63032 | 9857 ft | 296 kts | 71° |
| 2026-05-05 09:39 | 50.16494 | 8.66043 | 9857 ft | 296 kts | 71° |
| 2026-05-05 09:39 | 50.17208 | 8.69046 | 9859 ft | 296 kts | 71° |
| 2026-05-05 09:40 | 50.17922 | 8.72050 | 9854 ft | 296 kts | 71° |
| 2026-05-05 09:40 | 50.18627 | 8.75025 | 9857 ft | 295 kts | 71° |
| 2026-05-05 09:40 | 50.19340 | 8.78038 | 9858 ft | 295 kts | 71° |
| 2026-05-05 09:40 | 50.20050 | 8.81049 | 9859 ft | 295 kts | 71° |
| 2026-05-05 09:41 | 50.20759 | 8.84055 | 9863 ft | 295 kts | 71° |
| 2026-05-05 09:41 | 50.21466 | 8.87062 | 9860 ft | 295 kts | 71° |
| 2026-05-05 09:41 | 50.22175 | 8.90073 | 9864 ft | 295 kts | 71° |
| 2026-05-05 09:41 | 50.22881 | 8.93084 | 9864 ft | 295 kts | 71° |
| 2026-05-05 09:42 | 50.23585 | 8.96094 | 9863 ft | 295 kts | 71° |
| 2026-05-05 09:42 | 50.24290 | 8.99111 | 9865 ft | 295 kts | 71° |
| 2026-05-05 09:42 | 50.24984 | 9.02085 | 9862 ft | 295 kts | 71° |
| 2026-05-05 09:42 | 50.25685 | 9.05097 | 9861 ft | 295 kts | 71° |
| 2026-05-05 09:43 | 50.26388 | 9.08115 | 9862 ft | 295 kts | 71° |
| 2026-05-05 09:43 | 50.27090 | 9.11134 | 9861 ft | 295 kts | 71° |
| 2026-05-05 09:43 | 50.27789 | 9.14146 | 9863 ft | 295 kts | 71° |
| 2026-05-05 09:43 | 50.28489 | 9.17167 | 9862 ft | 295 kts | 71° |
| 2026-05-05 09:44 | 50.29189 | 9.20191 | 9862 ft | 296 kts | 71° |
| 2026-05-05 09:44 | 50.29888 | 9.23218 | 9865 ft | 296 kts | 71° |
| 2026-05-05 09:44 | 50.30586 | 9.26249 | 9876 ft | 298 kts | 70° |
| 2026-05-05 09:44 | 50.31293 | 9.29317 | 9987 ft | 301 kts | 70° |
| 2026-05-05 09:45 | 50.31969 | 9.32410 | 9999 ft | 301 kts | 75° |
| 2026-05-05 09:45 | 50.32247 | 9.35644 | 9999 ft | 301 kts | 91° |
| 2026-05-05 09:45 | 50.31823 | 9.38828 | 10000 ft | 300 kts | 114° |
| 2026-05-05 09:45 | 50.30676 | 9.41505 | 10000 ft | 298 kts | 138° |
| 2026-05-05 09:46 | 50.28864 | 9.42985 | 10001 ft | 296 kts | 168° |
| 2026-05-05 09:46 | 50.26830 | 9.42819 | 10000 ft | 295 kts | 199° |
| 2026-05-05 09:46 | 50.25143 | 9.41065 | 10001 ft | 295 kts | 229° |
| 2026-05-05 09:46 | 50.24101 | 9.38322 | 10003 ft | 296 kts | 249° |
| 2026-05-05 09:47 | 50.23481 | 9.35251 | 10000 ft | 296 kts | 253° |
| 2026-05-05 09:47 | 50.22900 | 9.32169 | 9988 ft | 293 kts | 253° |
| 2026-05-05 09:47 | 50.22295 | 9.29177 | 9594 ft | 288 kts | 251° |
| 2026-05-05 09:47 | 50.21659 | 9.26210 | 8711 ft | 289 kts | 251° |
| 2026-05-05 09:48 | 50.20998 | 9.23241 | 8219 ft | 291 kts | 250° |
| 2026-05-05 09:48 | 50.20325 | 9.20273 | 7900 ft | 288 kts | 249° |
| 2026-05-05 09:48 | 50.19658 | 9.17362 | 7582 ft | 282 kts | 249° |
| 2026-05-05 09:48 | 50.18956 | 9.14529 | 7169 ft | 278 kts | 246° |
| 2026-05-05 09:49 | 50.18273 | 9.11714 | 6775 ft | 276 kts | 249° |
| 2026-05-05 09:49 | 50.17671 | 9.08908 | 6468 ft | 270 kts | 250° |
| 2026-05-05 09:49 | 50.17088 | 9.06137 | 6201 ft | 267 kts | 250° |
| 2026-05-05 09:49 | 50.16515 | 9.03478 | 6160 ft | 250 kts | 250° |
| 2026-05-05 09:50 | 50.15948 | 9.01001 | 6179 ft | 237 kts | 248° |
| 2026-05-05 09:50 | 50.15369 | 8.98618 | 6185 ft | 232 kts | 247° |
| 2026-05-05 09:50 | 50.14824 | 8.96348 | 6186 ft | 216 kts | 248° |
| 2026-05-05 09:50 | 50.14330 | 8.94261 | 6187 ft | 201 kts | 248° |
| 2026-05-05 09:51 | 50.13854 | 8.92261 | 6051 ft | 193 kts | 248° |
| 2026-05-05 09:51 | 50.13395 | 8.90338 | 5831 ft | 187 kts | 248° |
| 2026-05-05 09:51 | 50.12944 | 8.88444 | 5524 ft | 187 kts | 248° |
| 2026-05-05 09:51 | 50.12489 | 8.86532 | 5164 ft | 189 kts | 248° |
| 2026-05-05 09:52 | 50.12040 | 8.84640 | 4835 ft | 183 kts | 248° |
| 2026-05-05 09:52 | 50.11607 | 8.82821 | 4561 ft | 174 kts | 249° |
| 2026-05-05 09:52 | 50.11196 | 8.81098 | 4315 ft | 168 kts | 248° |
| 2026-05-05 09:52 | 50.10792 | 8.79403 | 4071 ft | 167 kts | 249° |
| 2026-05-05 09:53 | 50.10519 | 8.78256 | 3903 ft | 166 kts | 249° |
| 2026-05-05 09:53 | 50.10120 | 8.76580 | 3683 ft | 162 kts | 248° |
| 2026-05-05 09:53 | 50.09755 | 8.75050 | 3466 ft | 155 kts | 248° |
| 2026-05-05 09:53 | 50.09390 | 8.73519 | 3240 ft | 147 kts | 248° |
| 2026-05-05 09:54 | 50.09044 | 8.72069 | 3046 ft | 139 kts | 249° |
| 2026-05-05 09:54 | 50.08711 | 8.70670 | 2851 ft | 138 kts | 249° |
| 2026-05-05 09:54 | 50.08376 | 8.69274 | 2654 ft | 138 kts | 249° |
| 2026-05-05 09:54 | 50.08048 | 8.67894 | 2473 ft | 138 kts | 249° |
| 2026-05-05 09:55 | 50.07716 | 8.66497 | 2265 ft | 138 kts | 250° |
| 2026-05-05 09:55 | 50.07382 | 8.65099 | 2067 ft | 138 kts | 250° |
| 2026-05-05 09:55 | 50.07049 | 8.63704 | 1870 ft | 137 kts | 250° |
| 2026-05-05 09:55 | 50.06718 | 8.62313 | 1683 ft | 137 kts | 250° |
| 2026-05-05 09:56 | 50.06389 | 8.60935 | 1468 ft | 137 kts | 249° |
| 2026-05-05 09:56 | 50.06059 | 8.59555 | 1279 ft | 134 kts | 249° |
| 2026-05-05 09:56 | 50.05717 | 8.58183 | 1105 ft | 137 kts | 248° |
| 2026-05-05 09:56 | 50.05398 | 8.56847 | 920 ft | 132 kts | 251° |
| 2026-05-05 09:57 | 50.05093 | 8.55525 | 728 ft | 129 kts | 249° |
| 2026-05-05 09:57 | 50.04770 | 8.54207 | 526 ft | 131 kts | 251° |
| 2026-05-05 09:57 | 50.04471 | 8.52926 | 381 ft | 121 kts | 248° |
| 2026-05-05 09:57 | 50.04217 | 8.51845 | 355 ft | 94 kts | 249° |
| 2026-05-05 09:58 | 50.04037 | 8.51096 | 331 ft | 52 kts | 249° |
| 2026-05-05 09:58 | 50.03959 | 8.50767 | 328 ft | 21 kts | 249° |
| 2026-05-05 09:58 | 50.03900 | 8.50543 | 325 ft | 24 kts | 245° |
| 2026-05-05 09:58 | 50.03795 | 8.50324 | 322 ft | 27 kts | 221° |
| 2026-05-05 09:59 | 50.03663 | 8.50202 | 324 ft | 17 kts | 166° |
| 2026-05-05 09:59 | 50.03648 | 8.50350 | 328 ft | 16 kts | 74° |
| 2026-05-05 09:59 | 50.03684 | 8.50522 | 330 ft | 18 kts | 71° |
| 2026-05-05 09:59 | 50.03731 | 8.50700 | 334 ft | 18 kts | 68° |
| 2026-05-05 10:00 | 50.03773 | 8.50890 | 337 ft | 18 kts | 71° |
| 2026-05-05 10:00 | 50.03820 | 8.51080 | 352 ft | 20 kts | 69° |
| 2026-05-05 10:00 | 50.03870 | 8.51294 | 352 ft | 22 kts | 71° |
| 2026-05-05 10:00 | 50.03923 | 8.51525 | 344 ft | 24 kts | 70° |
| 2026-05-05 10:01 | 50.03986 | 8.51780 | 351 ft | 26 kts | 68° |
| 2026-05-05 10:01 | 50.04053 | 8.52042 | 356 ft | 26 kts | 68° |
| 2026-05-05 10:01 | 50.04121 | 8.52304 | 360 ft | 26 kts | 72° |
| 2026-05-05 10:01 | 50.04175 | 8.52573 | 360 ft | 26 kts | 70° |
| 2026-05-05 10:02 | 50.04238 | 8.52833 | 359 ft | 26 kts | 69° |
| 2026-05-05 10:02 | 50.04304 | 8.53104 | 370 ft | 27 kts | 69° |
| 2026-05-05 10:02 | 50.04364 | 8.53356 | 376 ft | 23 kts | 70° |
| 2026-05-05 10:02 | 50.04398 | 8.53584 | 382 ft | 22 kts | 85° |
| 2026-05-05 10:03 | 50.04403 | 8.53667 | 382 ft | 0 kts | 83° |
| 2026-05-05 10:03 | 50.04414 | 8.53826 | 382 ft | 23 kts | 85° |
| 2026-05-05 10:03 | 50.04433 | 8.54081 | 382 ft | 25 kts | 81° |
| 2026-05-05 10:03 | 50.04453 | 8.54362 | 379 ft | 28 kts | 87° |
| 2026-05-05 10:04 | 50.04420 | 8.54609 | 372 ft | 24 kts | 121° |
| 2026-05-05 10:04 | 50.04319 | 8.54764 | 370 ft | 16 kts | 152° |
| 2026-05-05 10:04 | 50.04205 | 8.54832 | 365 ft | 22 kts | 161° |
| 2026-05-05 10:04 | 50.04073 | 8.54907 | 366 ft | 11 kts | 159° |
| 2026-05-05 10:05 | 50.04025 | 8.54982 | 368 ft | 10 kts | 104° |
| 2026-05-05 10:05 | 50.04036 | 8.55100 | 364 ft | 13 kts | 69° |
| 2026-05-05 10:05 | 50.04073 | 8.55241 | 364 ft | 16 kts | 69° |
| 2026-05-05 10:05 | 50.04115 | 8.55421 | 367 ft | 20 kts | 70° |
| 2026-05-05 10:06 | 50.04165 | 8.55628 | 362 ft | 22 kts | 70° |
| 2026-05-05 10:06 | 50.04220 | 8.55857 | 366 ft | 23 kts | 70° |
| 2026-05-05 10:06 | 50.04316 | 8.55941 | 367 ft | 18 kts | 344° |
| 2026-05-05 10:06 | 50.04418 | 8.55904 | 370 ft | 13 kts | 0° |
| 2026-05-05 10:07 | 50.04508 | 8.55945 | 368 ft | 16 kts | 24° |
| 2026-05-05 10:07 | 50.04565 | 8.56003 | 369 ft | 8 kts | 48° |
| 2026-05-05 10:07 | 50.04594 | 8.56117 | 368 ft | 13 kts | 72° |
| 2026-05-05 10:07 | 50.04629 | 8.56269 | 365 ft | 16 kts | 70° |
| 2026-05-05 10:08 | 50.04667 | 8.56422 | 371 ft | 11 kts | 71° |
| 2026-05-05 10:08 | 50.04698 | 8.56536 | 371 ft | 11 kts | 58° |
| 2026-05-05 10:08 | 50.04748 | 8.56610 | 371 ft | 8 kts | 13° |
| 2026-05-05 10:08 | 50.04782 | 8.56601 | 369 ft | 0 kts | 342° |
| 2026-05-05 10:09 | 50.04786 | 8.56598 | 368 ft | 1 kts | 339° |
| 2026-05-05 10:09 | 50.04798 | 8.56591 | 366 ft | 3 kts | 338° |
| 2026-05-05 10:09 | 50.04803 | 8.56588 | 366 ft | 3 kts | 339° |
| 2026-05-05 10:09 | 50.04804 | 8.56587 | 366 ft | 0 kts | 339° |
| 2026-05-05 10:10 | 50.04805 | 8.56587 | 366 ft | 0 kts | 339° |
| 2026-05-05 10:10 | 50.04806 | 8.56586 | 366 ft | 0 kts | 339° |